Time,TemperatureF,DewpointF,PressureIn,WindDirection,WindDirectionDegrees,WindSpeedMPH,WindSpeedGustMPH,Humidity,HourlyPrecipIn,Conditions,Clouds,dailyrainin,SoftwareType,DateUTC
2013-12-19 00:02:00,43.7,35.9,29.71,SSW,203,4.9,7.6,74,0.00,,,0.00,WUHU216HW,2013-12-19 06:02:00,
2013-12-19 00:03:00,43.7,35.9,29.71,SSW,203,4.9,7.6,74,0.00,,,0.00,WUHU216HW,2013-12-19 06:03:00,
2013-12-19 00:04:00,43.7,35.9,29.71,SSW,203,8.5,8.5,74,0.00,,,0.00,WUHU216HW,2013-12-19 06:04:00,
2013-12-19 00:08:00,43.8,36.4,29.71,SW,225,6.2,8.5,75,0.00,,,0.00,WUHU216HW,2013-12-19 06:08:00,
2013-12-19 00:09:00,43.8,36.4,29.71,SW,225,6.2,8.5,75,0.00,,,0.00,WUHU216HW,2013-12-19 06:09:00,
2013-12-19 00:10:00,43.8,36.4,29.71,SSW,203,6.2,8.5,75,0.00,,,0.00,WUHU216HW,2013-12-19 06:10:00,
2013-12-19 00:13:00,43.8,36.4,29.71,South,180,7.6,8.5,75,0.00,,,0.00,WUHU216HW,2013-12-19 06:13:00,
2013-12-19 00:14:00,43.8,36.4,29.71,South,180,6.2,8.5,75,0.00,,,0.00,WUHU216HW,2013-12-19 06:14:00,
2013-12-19 00:15:00,44.0,36.2,29.71,South,180,6.2,7.6,74,0.00,,,0.00,WUHU216HW,2013-12-19 06:15:00,
2013-12-19 00:18:00,44.0,36.2,29.71,SSW,203,5.1,7.6,74,0.00,,,0.00,WUHU216HW,2013-12-19 06:18:00,
2013-12-19 00:19:00,44.2,36.4,29.71,South,180,4.2,7.6,74,0.00,,,0.00,WUHU216HW,2013-12-19 06:19:00,
2013-12-19 00:20:00,44.2,36.4,29.71,South,180,4.2,7.6,74,0.00,,,0.00,WUHU216HW,2013-12-19 06:20:00,
2013-12-19 00:23:00,44.2,36.4,29.71,South,180,5.3,6.2,74,0.00,,,0.00,WUHU216HW,2013-12-19 06:23:00,
2013-12-19 00:25:00,44.2,36.4,29.71,South,180,4.6,5.3,74,0.00,,,0.00,WUHU216HW,2013-12-19 06:25:00,
2013-12-19 00:26:00,44.2,36.4,29.71,South,180,4.6,5.3,74,0.00,,,0.00,WUHU216HW,2013-12-19 06:26:00,
2013-12-19 00:28:00,44.0,36.2,29.70,South,180,4.6,5.3,74,0.00,,,0.00,WUHU216HW,2013-12-19 06:28:00,
2013-12-19 00:30:00,43.8,36.1,29.71,South,180,3.1,5.3,74,0.00,,,0.00,WUHU216HW,2013-12-19 06:30:00,
2013-12-19 00:31:00,43.8,36.1,29.71,South,180,2.4,5.3,74,0.00,,,0.00,WUHU216HW,2013-12-19 06:31:00,
2013-12-19 00:32:00,43.8,36.1,29.71,South,180,2.4,5.3,74,0.00,,,0.00,WUHU216HW,2013-12-19 06:32:00,
2013-12-19 00:33:00,43.8,36.1,29.71,South,180,2.4,5.3,74,0.00,,,0.00,WUHU216HW,2013-12-19 06:33:00,
2013-12-19 00:34:00,43.7,35.9,29.71,South,180,3.3,4.6,74,0.00,,,0.00,WUHU216HW,2013-12-19 06:34:00,
2013-12-19 00:35:00,43.7,35.9,29.71,South,180,3.3,4.6,74,0.00,,,0.00,WUHU216HW,2013-12-19 06:35:00,
2013-12-19 00:37:00,43.5,35.7,29.71,South,180,3.8,4.6,74,0.00,,,0.00,WUHU216HW,2013-12-19 06:37:00,
2013-12-19 00:38:00,43.5,35.7,29.71,SSE,158,1.5,3.8,74,0.00,,,0.00,WUHU216HW,2013-12-19 06:38:00,
2013-12-19 00:39:00,43.5,35.7,29.71,SSE,158,1.5,3.8,74,0.00,,,0.00,WUHU216HW,2013-12-19 06:39:00,
2013-12-19 00:40:00,43.3,35.6,29.70,SE,135,1.1,3.8,74,0.00,,,0.00,WUHU216HW,2013-12-19 06:40:00,
2013-12-19 00:42:00,43.1,35.4,29.71,SSE,158,0.0,3.8,74,0.00,,,0.00,WUHU216HW,2013-12-19 06:42:00,
2013-12-19 00:43:00,43.1,35.4,29.71,SSE,158,0.0,3.8,74,0.00,,,0.00,WUHU216HW,2013-12-19 06:43:00,
2013-12-19 00:44:00,43.1,35.4,29.71,SSE,158,0.8,3.8,74,0.00,,,0.00,WUHU216HW,2013-12-19 06:44:00,
2013-12-19 00:45:00,43.1,35.4,29.71,SSE,158,0.8,3.8,74,0.00,,,0.00,WUHU216HW,2013-12-19 06:45:00,
2013-12-19 00:46:00,43.1,35.2,29.71,SSE,158,1.7,3.8,74,0.00,,,0.00,WUHU216HW,2013-12-19 06:46:00,
2013-12-19 00:48:00,42.9,35.2,29.70,SSE,158,1.7,1.7,74,0.00,,,0.00,WUHU216HW,2013-12-19 06:48:00,
2013-12-19 00:49:00,42.8,35.0,29.70,SSE,158,1.1,1.7,74,0.00,,,0.00,WUHU216HW,2013-12-19 06:49:00,
2013-12-19 00:50:00,42.8,35.0,29.70,SSE,158,1.1,1.7,74,0.00,,,0.00,WUHU216HW,2013-12-19 06:50:00,
2013-12-19 00:51:00,42.6,34.9,29.70,SSE,158,0.0,1.7,74,0.00,,,0.00,WUHU216HW,2013-12-19 06:51:00,
2013-12-19 00:54:00,42.6,34.9,29.70,SSE,158,1.1,1.7,74,0.00,,,0.00,WUHU216HW,2013-12-19 06:54:00,
2013-12-19 00:55:00,42.4,34.7,29.71,SSE,158,0.0,1.7,74,0.00,,,0.00,WUHU216HW,2013-12-19 06:55:00,
2013-12-19 00:56:00,42.4,34.7,29.71,SSE,158,0.0,1.7,74,0.00,,,0.00,WUHU216HW,2013-12-19 06:56:00,
2013-12-19 00:59:00,42.0,34.3,29.71,SSE,158,0.0,1.1,74,0.00,,,0.00,WUHU216HW,2013-12-19 06:59:00,
2013-12-19 01:00:00,42.0,34.3,29.71,SSE,158,0.0,1.1,74,0.00,,,0.00,WUHU216HW,2013-12-19 07:00:00,
2013-12-19 01:01:00,42.0,34.3,29.71,SE,135,0.0,1.1,74,0.00,,,0.00,WUHU216HW,2013-12-19 07:01:00,
2013-12-19 01:02:00,42.0,34.3,29.71,SE,135,0.0,1.1,74,0.00,,,0.00,WUHU216HW,2013-12-19 07:02:00,
2013-12-19 01:04:00,41.9,34.1,29.71,SE,135,0.0,0.0,74,0.00,,,0.00,WUHU216HW,2013-12-19 07:04:00,
2013-12-19 01:05:00,41.9,34.1,29.71,SE,135,0.0,0.0,74,0.00,,,0.00,WUHU216HW,2013-12-19 07:05:00,
2013-12-19 01:06:00,41.7,34.3,29.71,SE,135,0.0,0.0,75,0.00,,,0.00,WUHU216HW,2013-12-19 07:06:00,
2013-12-19 01:07:00,41.7,34.3,29.71,SE,135,0.0,0.0,75,0.00,,,0.00,WUHU216HW,2013-12-19 07:07:00,
2013-12-19 01:09:00,41.7,34.3,29.71,ESE,113,0.0,0.0,75,0.00,,,0.00,WUHU216HW,2013-12-19 07:09:00,
2013-12-19 01:10:00,41.5,34.1,29.71,ENE,68,0.0,0.0,75,0.00,,,0.00,WUHU216HW,2013-12-19 07:10:00,
2013-12-19 01:12:00,41.5,34.1,29.71,ENE,68,0.0,0.0,75,0.00,,,0.00,WUHU216HW,2013-12-19 07:12:00,
2013-12-19 01:14:00,41.5,34.1,29.71,ENE,68,0.0,0.0,75,0.00,,,0.00,WUHU216HW,2013-12-19 07:14:00,
2013-12-19 01:15:00,41.5,34.1,29.71,ENE,68,0.0,0.0,75,0.00,,,0.00,WUHU216HW,2013-12-19 07:15:00,
2013-12-19 01:17:00,41.3,34.3,29.71,NE,45,0.0,0.0,76,0.00,,,0.00,WUHU216HW,2013-12-19 07:17:00,
2013-12-19 01:18:00,41.3,34.3,29.71,NE,45,0.0,0.0,76,0.00,,,0.00,WUHU216HW,2013-12-19 07:18:00,
2013-12-19 01:19:00,41.1,34.1,29.71,NE,45,0.0,0.0,76,0.00,,,0.00,WUHU216HW,2013-12-19 07:19:00,
2013-12-19 01:20:00,41.1,34.1,29.71,NE,45,0.0,0.0,76,0.00,,,0.00,WUHU216HW,2013-12-19 07:20:00,
2013-12-19 01:21:00,41.0,33.9,29.70,NNE,23,0.0,0.0,76,0.00,,,0.00,WUHU216HW,2013-12-19 07:21:00,
2013-12-19 01:22:00,41.0,33.9,29.71,NNE,23,0.0,0.0,76,0.00,,,0.00,WUHU216HW,2013-12-19 07:22:00,
2013-12-19 01:23:00,40.8,33.7,29.71,NE,45,0.0,0.0,76,0.00,,,0.00,WUHU216HW,2013-12-19 07:23:00,
2013-12-19 01:24:00,40.8,33.7,29.71,NE,45,0.0,0.0,76,0.00,,,0.00,WUHU216HW,2013-12-19 07:24:00,
2013-12-19 01:25:00,40.8,33.7,29.71,NE,45,0.0,0.0,76,0.00,,,0.00,WUHU216HW,2013-12-19 07:25:00,
2013-12-19 01:26:00,40.8,33.7,29.71,NE,45,0.0,0.0,76,0.00,,,0.00,WUHU216HW,2013-12-19 07:26:00,
2013-12-19 01:27:00,40.8,34.0,29.71,NE,45,0.0,0.0,77,0.00,,,0.00,WUHU216HW,2013-12-19 07:27:00,
2013-12-19 01:28:00,40.8,34.0,29.71,NE,45,0.0,0.0,77,0.00,,,0.00,WUHU216HW,2013-12-19 07:28:00,
2013-12-19 01:30:00,40.6,33.9,29.71,NE,45,0.0,0.0,77,0.00,,,0.00,WUHU216HW,2013-12-19 07:30:00,
2013-12-19 01:31:00,40.6,33.9,29.71,NE,45,0.0,0.0,77,0.00,,,0.00,WUHU216HW,2013-12-19 07:31:00,
2013-12-19 01:33:00,40.6,33.9,29.71,NE,45,0.0,0.0,77,0.00,,,0.00,WUHU216HW,2013-12-19 07:33:00,
2013-12-19 01:35:00,40.4,33.4,29.71,NE,45,0.0,0.0,76,0.00,,,0.00,WUHU216HW,2013-12-19 07:35:00,
2013-12-19 01:36:00,40.2,33.2,29.71,ESE,113,0.0,0.0,76,0.00,,,0.00,WUHU216HW,2013-12-19 07:36:00,
2013-12-19 01:37:00,40.2,33.2,29.71,ESE,113,0.0,0.0,76,0.00,,,0.00,WUHU216HW,2013-12-19 07:37:00,
2013-12-19 01:38:00,40.2,33.2,29.71,ESE,113,0.0,0.0,76,0.00,,,0.00,WUHU216HW,2013-12-19 07:38:00,
2013-12-19 01:40:00,40.1,33.0,29.71,ESE,113,0.0,0.0,76,0.00,,,0.00,WUHU216HW,2013-12-19 07:40:00,
2013-12-19 01:41:00,40.1,33.0,29.71,SE,135,0.0,0.0,76,0.00,,,0.00,WUHU216HW,2013-12-19 07:41:00,
2013-12-19 01:42:00,39.9,32.9,29.71,SE,135,0.0,0.0,76,0.00,,,0.00,WUHU216HW,2013-12-19 07:42:00,
2013-12-19 01:43:00,39.9,32.9,29.71,SE,135,0.0,0.0,76,0.00,,,0.00,WUHU216HW,2013-12-19 07:43:00,
2013-12-19 01:45:00,39.9,32.9,29.71,SE,135,0.0,0.0,76,0.00,,,0.00,WUHU216HW,2013-12-19 07:45:00,
2013-12-19 01:46:00,39.9,32.7,29.71,SE,135,0.0,0.0,76,0.00,,,0.00,WUHU216HW,2013-12-19 07:46:00,
2013-12-19 01:47:00,39.7,32.7,29.71,SE,135,0.0,0.0,76,0.00,,,0.00,WUHU216HW,2013-12-19 07:47:00,
2013-12-19 01:49:00,39.7,33.0,29.71,SE,135,0.0,0.0,77,0.00,,,0.00,WUHU216HW,2013-12-19 07:49:00,
2013-12-19 01:50:00,39.7,33.0,29.72,SE,135,0.0,0.0,77,0.00,,,0.00,WUHU216HW,2013-12-19 07:50:00,
2013-12-19 01:51:00,39.2,32.9,29.72,SE,135,0.0,0.0,77,0.00,,,0.00,WUHU216HW,2013-12-19 07:51:00,
2013-12-19 01:52:00,39.5,32.9,29.71,SE,135,0.0,0.0,77,0.00,,,0.00,WUHU216HW,2013-12-19 07:52:00,
2013-12-19 01:54:00,39.3,32.7,29.71,SSE,158,0.0,0.0,77,0.00,,,0.00,WUHU216HW,2013-12-19 07:54:00,
2013-12-19 01:55:00,39.3,32.7,29.71,SSE,158,0.0,0.0,77,0.00,,,0.00,WUHU216HW,2013-12-19 07:55:00,
2013-12-19 01:56:00,39.3,32.7,29.71,SSE,158,0.0,0.0,77,0.00,,,0.00,WUHU216HW,2013-12-19 07:56:00,
2013-12-19 01:57:00,39.3,33.0,29.72,SSE,158,0.0,0.0,78,0.00,,,0.00,WUHU216HW,2013-12-19 07:57:00,
2013-12-19 01:58:00,39.3,33.0,29.72,SSE,158,0.0,0.0,78,0.00,,,0.00,WUHU216HW,2013-12-19 07:58:00,
2013-12-19 01:59:00,39.3,33.0,29.72,SSE,158,0.0,0.0,78,0.00,,,0.00,WUHU216HW,2013-12-19 07:59:00,
2013-12-19 02:00:00,39.3,33.0,29.72,SSE,158,0.0,0.0,78,0.00,,,0.00,WUHU216HW,2013-12-19 08:00:00,
2013-12-19 02:02:00,39.3,33.0,29.72,SSE,158,0.0,0.0,78,0.00,,,0.00,WUHU216HW,2013-12-19 08:02:00,
2013-12-19 02:03:00,39.3,33.0,29.72,SSE,158,0.0,0.0,78,0.00,,,0.00,WUHU216HW,2013-12-19 08:03:00,
2013-12-19 02:05:00,39.3,33.0,29.72,SE,135,0.0,0.0,78,0.00,,,0.00,WUHU216HW,2013-12-19 08:05:00,
2013-12-19 02:07:00,39.3,33.4,29.72,ESE,113,0.0,0.0,79,0.00,,,0.00,WUHU216HW,2013-12-19 08:07:00,
2013-12-19 02:08:00,39.2,33.2,29.72,SSE,158,0.0,0.0,79,0.00,,,0.00,WUHU216HW,2013-12-19 08:08:00,
2013-12-19 02:10:00,39.2,33.2,29.71,SSE,158,0.0,0.0,79,0.00,,,0.00,WUHU216HW,2013-12-19 08:10:00,
2013-12-19 02:11:00,39.2,33.2,29.71,SSE,158,0.0,0.0,79,0.00,,,0.00,WUHU216HW,2013-12-19 08:11:00,
2013-12-19 02:12:00,39.0,33.0,29.71,SSE,158,0.0,0.0,79,0.00,,,0.00,WUHU216HW,2013-12-19 08:12:00,
2013-12-19 02:13:00,39.0,33.0,29.71,SSE,158,0.0,0.0,79,0.00,,,0.00,WUHU216HW,2013-12-19 08:13:00,
2013-12-19 02:15:00,39.0,33.0,29.72,SSE,158,0.0,0.0,79,0.00,,,0.00,WUHU216HW,2013-12-19 08:15:00,
2013-12-19 02:16:00,39.0,33.0,29.72,SSE,158,0.0,0.0,79,0.00,,,0.00,WUHU216HW,2013-12-19 08:16:00,
2013-12-19 02:18:00,39.0,33.0,29.72,SSE,158,0.0,0.0,79,0.00,,,0.00,WUHU216HW,2013-12-19 08:18:00,
2013-12-19 02:19:00,39.0,33.0,29.72,SSE,158,0.0,0.0,79,0.00,,,0.00,WUHU216HW,2013-12-19 08:19:00,
2013-12-19 02:20:00,39.0,33.0,29.72,SSE,158,0.0,0.0,79,0.00,,,0.00,WUHU216HW,2013-12-19 08:20:00,
2013-12-19 02:21:00,38.8,32.9,29.72,SE,135,2.2,2.2,79,0.00,,,0.00,WUHU216HW,2013-12-19 08:21:00,
2013-12-19 02:23:00,38.8,32.9,29.72,SE,135,0.0,2.2,79,0.00,,,0.00,WUHU216HW,2013-12-19 08:23:00,
2013-12-19 02:24:00,38.8,32.9,29.72,SE,135,0.0,2.2,79,0.00,,,0.00,WUHU216HW,2013-12-19 08:24:00,
2013-12-19 02:26:00,38.8,32.9,29.72,SE,135,0.8,2.2,79,0.00,,,0.00,WUHU216HW,2013-12-19 08:26:00,
2013-12-19 02:28:00,38.8,32.9,29.71,SE,135,0.8,2.2,79,0.00,,,0.00,WUHU216HW,2013-12-19 08:28:00,
2013-12-19 02:29:00,38.6,32.7,29.71,SSE,158,0.0,2.2,79,0.00,,,0.00,WUHU216HW,2013-12-19 08:29:00,
2013-12-19 02:31:00,38.4,32.5,29.71,SSE,158,0.0,2.2,79,0.00,,,0.00,WUHU216HW,2013-12-19 08:31:00,
2013-12-19 02:33:00,38.4,32.5,29.72,SSE,158,0.0,0.8,79,0.00,,,0.00,WUHU216HW,2013-12-19 08:33:00,
2013-12-19 02:34:00,38.4,32.5,29.72,SE,135,1.1,1.1,79,0.00,,,0.00,WUHU216HW,2013-12-19 08:34:00,
2013-12-19 02:35:00,38.4,32.5,29.72,SE,135,1.1,1.1,79,0.00,,,0.00,WUHU216HW,2013-12-19 08:35:00,
2013-12-19 02:36:00,38.3,32.3,29.72,South,180,1.5,1.5,79,0.00,,,0.00,WUHU216HW,2013-12-19 08:36:00,
2013-12-19 02:38:00,38.3,32.3,29.72,South,180,2.9,2.9,79,0.00,,,0.00,WUHU216HW,2013-12-19 08:38:00,
2013-12-19 02:39:00,38.3,32.3,29.72,South,180,2.9,2.9,79,0.00,,,0.00,WUHU216HW,2013-12-19 08:39:00,
2013-12-19 02:40:00,38.3,32.3,29.72,SSE,158,0.8,2.9,79,0.00,,,0.00,WUHU216HW,2013-12-19 08:40:00,
2013-12-19 02:41:00,38.3,32.3,29.72,SSE,158,0.8,2.9,79,0.00,,,0.00,WUHU216HW,2013-12-19 08:41:00,
2013-12-19 02:44:00,38.1,32.1,29.72,SSE,158,2.6,3.1,79,0.00,,,0.00,WUHU216HW,2013-12-19 08:44:00,
2013-12-19 02:45:00,38.1,32.1,29.72,SSE,158,2.6,3.1,79,0.00,,,0.00,WUHU216HW,2013-12-19 08:45:00,
2013-12-19 02:46:00,38.1,32.0,29.72,South,180,3.8,3.8,79,0.00,,,0.00,WUHU216HW,2013-12-19 08:46:00,
2013-12-19 02:49:00,37.9,32.0,29.72,South,180,4.0,4.0,79,0.00,,,0.00,WUHU216HW,2013-12-19 08:49:00,
2013-12-19 02:50:00,37.9,32.0,29.72,South,180,4.0,4.0,79,0.00,,,0.00,WUHU216HW,2013-12-19 08:50:00,
2013-12-19 02:51:00,37.9,32.0,29.72,South,180,6.0,6.0,79,0.00,,,0.00,WUHU216HW,2013-12-19 08:51:00,
2013-12-19 02:54:00,37.7,31.8,29.72,South,180,3.1,6.0,79,0.00,,,0.00,WUHU216HW,2013-12-19 08:54:00,
2013-12-19 02:55:00,37.7,31.8,29.72,South,180,3.3,6.0,79,0.00,,,0.00,WUHU216HW,2013-12-19 08:55:00,
2013-12-19 02:56:00,37.7,31.8,29.72,South,180,3.3,6.0,79,0.00,,,0.00,WUHU216HW,2013-12-19 08:56:00,
2013-12-19 02:59:00,37.7,32.1,29.72,South,180,2.9,6.0,80,0.00,,,0.00,WUHU216HW,2013-12-19 08:59:00,
2013-12-19 03:00:00,37.7,32.1,29.72,South,180,2.9,6.0,80,0.00,,,0.00,WUHU216HW,2013-12-19 09:00:00,
2013-12-19 03:01:00,37.7,32.1,29.72,South,180,4.0,6.0,80,0.00,,,0.00,WUHU216HW,2013-12-19 09:01:00,
2013-12-19 03:02:00,37.7,32.1,29.72,South,180,4.0,4.0,80,0.00,,,0.00,WUHU216HW,2013-12-19 09:02:00,
2013-12-19 03:05:00,37.7,32.1,29.71,SSE,158,3.1,4.0,80,0.00,,,0.00,WUHU216HW,2013-12-19 09:05:00,
2013-12-19 03:06:00,37.7,32.1,29.71,SSE,158,0.0,4.0,80,0.00,,,0.00,WUHU216HW,2013-12-19 09:06:00,
2013-12-19 03:07:00,37.7,32.1,29.71,SSE,158,0.0,4.0,80,0.00,,,0.00,WUHU216HW,2013-12-19 09:07:00,
2013-12-19 03:10:00,37.9,32.3,29.71,South,180,2.9,4.0,80,0.00,,,0.00,WUHU216HW,2013-12-19 09:10:00,
2013-12-19 03:11:00,37.9,32.3,29.71,South,180,2.9,4.0,80,0.00,,,0.00,WUHU216HW,2013-12-19 09:11:00,
2013-12-19 03:12:00,37.9,32.3,29.71,South,180,2.9,4.0,80,0.00,,,0.00,WUHU216HW,2013-12-19 09:12:00,
2013-12-19 03:15:00,37.9,32.3,29.71,South,180,2.9,2.9,80,0.00,,,0.00,WUHU216HW,2013-12-19 09:15:00,
2013-12-19 03:16:00,37.9,32.3,29.71,South,180,2.9,2.9,80,0.00,,,0.00,WUHU216HW,2013-12-19 09:16:00,
2013-12-19 03:17:00,37.9,32.3,29.71,South,180,3.8,3.8,80,0.00,,,0.00,WUHU216HW,2013-12-19 09:17:00,
2013-12-19 03:18:00,37.9,32.3,29.71,South,180,3.8,3.8,80,0.00,,,0.00,WUHU216HW,2013-12-19 09:18:00,
2013-12-19 03:20:00,37.9,32.3,29.71,SSE,158,2.4,3.8,80,0.00,,,0.00,WUHU216HW,2013-12-19 09:20:00,
2013-12-19 03:21:00,37.9,32.3,29.71,South,180,3.1,3.8,80,0.00,,,0.00,WUHU216HW,2013-12-19 09:21:00,
2013-12-19 03:22:00,37.9,32.3,29.71,South,180,3.1,3.8,80,0.00,,,0.00,WUHU216HW,2013-12-19 09:22:00,
2013-12-19 03:23:00,38.1,32.5,29.71,SSE,158,2.2,3.8,80,0.00,,,0.00,WUHU216HW,2013-12-19 09:23:00,
2013-12-19 03:24:00,38.1,32.5,29.71,SSE,158,2.2,3.8,80,0.00,,,0.00,WUHU216HW,2013-12-19 09:24:00,
2013-12-19 03:25:00,38.1,32.5,29.71,South,180,2.9,3.8,80,0.00,,,0.00,WUHU216HW,2013-12-19 09:25:00,
2013-12-19 03:27:00,38.1,32.5,29.71,SSE,158,2.6,3.8,80,0.00,,,0.00,WUHU216HW,2013-12-19 09:27:00,
2013-12-19 03:28:00,38.1,32.5,29.71,SSE,158,2.6,3.1,80,0.00,,,0.00,WUHU216HW,2013-12-19 09:28:00,
2013-12-19 03:29:00,38.1,32.5,29.71,South,180,4.9,4.9,80,0.00,,,0.00,WUHU216HW,2013-12-19 09:29:00,
2013-12-19 03:31:00,38.1,32.5,29.71,SSE,158,1.3,4.9,80,0.00,,,0.00,WUHU216HW,2013-12-19 09:31:00,
2013-12-19 03:32:00,38.1,32.5,29.71,SSE,158,1.3,4.9,80,0.00,,,0.00,WUHU216HW,2013-12-19 09:32:00,
2013-12-19 03:33:00,38.1,32.5,29.71,SSE,158,0.0,4.9,80,0.00,,,0.00,WUHU216HW,2013-12-19 09:33:00,
2013-12-19 03:34:00,38.1,32.5,29.71,SSE,158,0.0,4.9,80,0.00,,,0.00,WUHU216HW,2013-12-19 09:34:00,
2013-12-19 03:36:00,38.1,32.5,29.71,SSE,158,0.0,4.9,80,0.00,,,0.00,WUHU216HW,2013-12-19 09:36:00,
2013-12-19 03:37:00,38.1,32.5,29.71,SSE,158,0.0,4.9,80,0.00,,,0.00,WUHU216HW,2013-12-19 09:37:00,
2013-12-19 03:39:00,38.1,32.5,29.71,SE,135,0.0,4.9,80,0.00,,,0.00,WUHU216HW,2013-12-19 09:39:00,
2013-12-19 03:41:00,38.1,32.5,29.72,SSE,158,0.0,1.3,80,0.00,,,0.00,WUHU216HW,2013-12-19 09:41:00,
2013-12-19 03:42:00,38.1,32.5,29.71,SSE,158,0.0,0.0,80,0.00,,,0.00,WUHU216HW,2013-12-19 09:42:00,
2013-12-19 03:44:00,38.1,32.5,29.71,South,180,0.8,0.8,80,0.00,,,0.00,WUHU216HW,2013-12-19 09:44:00,
2013-12-19 03:45:00,38.1,32.5,29.71,South,180,0.8,0.8,80,0.00,,,0.00,WUHU216HW,2013-12-19 09:45:00,
2013-12-19 03:46:00,38.1,32.5,29.71,South,180,0.0,0.8,80,0.00,,,0.00,WUHU216HW,2013-12-19 09:46:00,
2013-12-19 03:47:00,38.1,32.5,29.71,South,180,0.0,0.8,80,0.00,,,0.00,WUHU216HW,2013-12-19 09:47:00,
2013-12-19 03:49:00,38.1,32.5,29.72,SSE,158,0.8,0.8,80,0.00,,,0.00,WUHU216HW,2013-12-19 09:49:00,
2013-12-19 03:50:00,38.1,32.5,29.72,SSE,158,0.8,0.8,80,0.00,,,0.00,WUHU216HW,2013-12-19 09:50:00,
2013-12-19 03:51:00,38.1,32.5,29.71,SSE,158,1.3,1.3,80,0.00,,,0.00,WUHU216HW,2013-12-19 09:51:00,
2013-12-19 03:52:00,38.1,32.5,29.71,SSE,158,1.3,1.3,80,0.00,,,0.00,WUHU216HW,2013-12-19 09:52:00,
2013-12-19 03:53:00,38.1,32.5,29.72,South,180,2.2,2.2,80,0.00,,,0.00,WUHU216HW,2013-12-19 09:53:00,
2013-12-19 03:54:00,38.1,32.5,29.71,South,180,2.2,2.2,80,0.00,,,0.00,WUHU216HW,2013-12-19 09:54:00,
2013-12-19 03:55:00,38.1,32.5,29.71,South,180,4.0,4.0,80,0.00,,,0.00,WUHU216HW,2013-12-19 09:55:00,
2013-12-19 03:57:00,38.1,32.5,29.71,SSE,158,2.6,4.0,80,0.00,,,0.00,WUHU216HW,2013-12-19 09:57:00,
2013-12-19 03:58:00,38.1,32.5,29.71,SSE,158,2.6,4.0,80,0.00,,,0.00,WUHU216HW,2013-12-19 09:58:00,
2013-12-19 03:59:00,38.1,32.5,29.71,SSE,158,2.6,4.0,80,0.00,,,0.00,WUHU216HW,2013-12-19 09:59:00,
2013-12-19 04:00:00,38.1,32.5,29.71,South,180,3.3,4.0,80,0.00,,,0.00,WUHU216HW,2013-12-19 10:00:00,
2013-12-19 04:01:00,38.1,32.8,29.71,South,180,3.3,4.0,81,0.00,,,0.00,WUHU216HW,2013-12-19 10:01:00,
2013-12-19 04:02:00,38.1,32.8,29.71,South,180,3.3,4.0,81,0.00,,,0.00,WUHU216HW,2013-12-19 10:02:00,
2013-12-19 04:03:00,38.1,32.8,29.71,South,180,2.6,4.0,81,0.00,,,0.00,WUHU216HW,2013-12-19 10:03:00,
2013-12-19 04:05:00,38.1,32.8,29.71,South,180,2.6,4.0,81,0.00,,,0.00,WUHU216HW,2013-12-19 10:05:00,
2013-12-19 04:06:00,38.1,32.8,29.71,South,180,2.2,3.3,81,0.00,,,0.00,WUHU216HW,2013-12-19 10:06:00,
2013-12-19 04:07:00,38.1,32.8,29.71,South,180,2.2,3.3,81,0.00,,,0.00,WUHU216HW,2013-12-19 10:07:00,
2013-12-19 04:08:00,38.3,33.0,29.71,South,180,3.3,3.3,81,0.00,,,0.00,WUHU216HW,2013-12-19 10:08:00,
2013-12-19 04:10:00,38.3,33.0,29.71,South,180,4.0,4.0,81,0.00,,,0.00,WUHU216HW,2013-12-19 10:10:00,
2013-12-19 04:11:00,38.3,33.0,29.71,South,180,4.0,4.0,81,0.00,,,0.00,WUHU216HW,2013-12-19 10:11:00,
2013-12-19 04:12:00,38.3,33.0,29.71,South,180,4.0,4.0,81,0.00,,,0.00,WUHU216HW,2013-12-19 10:12:00,
2013-12-19 04:13:00,38.4,33.1,29.71,South,180,3.8,4.0,81,0.00,,,0.00,WUHU216HW,2013-12-19 10:13:00,
2013-12-19 04:15:00,38.6,33.3,29.71,South,180,4.4,4.9,81,0.00,,,0.00,WUHU216HW,2013-12-19 10:15:00,
2013-12-19 04:16:00,38.6,33.3,29.71,South,180,4.4,4.9,81,0.00,,,0.00,WUHU216HW,2013-12-19 10:16:00,
2013-12-19 04:17:00,38.6,33.3,29.71,South,180,4.4,4.9,81,0.00,,,0.00,WUHU216HW,2013-12-19 10:17:00,
2013-12-19 04:18:00,38.8,33.3,29.71,South,180,3.8,4.9,81,0.00,,,0.00,WUHU216HW,2013-12-19 10:18:00,
2013-12-19 04:21:00,38.8,33.5,29.71,South,180,4.2,4.9,81,0.00,,,0.00,WUHU216HW,2013-12-19 10:21:00,
2013-12-19 04:22:00,38.8,33.5,29.71,South,180,4.2,4.9,81,0.00,,,0.00,WUHU216HW,2013-12-19 10:22:00,
2013-12-19 04:23:00,39.0,33.7,29.71,SSW,203,6.0,6.0,81,0.00,,,0.00,WUHU216HW,2013-12-19 10:23:00,
2013-12-19 04:24:00,39.0,33.7,29.71,SSW,203,6.0,6.0,81,0.00,,,0.00,WUHU216HW,2013-12-19 10:24:00,
2013-12-19 04:26:00,39.0,33.7,29.71,South,180,5.8,6.0,81,0.00,,,0.00,WUHU216HW,2013-12-19 10:26:00,
2013-12-19 04:27:00,39.3,34.0,29.71,South,180,4.9,6.0,81,0.00,,,0.00,WUHU216HW,2013-12-19 10:27:00,
2013-12-19 04:28:00,39.3,34.0,29.71,South,180,4.9,6.0,81,0.00,,,0.00,WUHU216HW,2013-12-19 10:28:00,
2013-12-19 04:29:00,39.3,34.0,29.71,South,180,3.8,6.0,81,0.00,,,0.00,WUHU216HW,2013-12-19 10:29:00,
2013-12-19 04:31:00,39.5,34.2,29.71,SSW,203,5.3,6.0,81,0.00,,,0.00,WUHU216HW,2013-12-19 10:31:00,
2013-12-19 04:32:00,39.5,34.2,29.71,SSW,203,5.3,6.0,81,0.00,,,0.00,WUHU216HW,2013-12-19 10:32:00,
2013-12-19 04:33:00,39.7,34.2,29.71,SSW,203,5.3,6.0,81,0.00,,,0.00,WUHU216HW,2013-12-19 10:33:00,
2013-12-19 04:34:00,39.7,34.3,29.71,SSW,203,4.0,5.8,81,0.00,,,0.00,WUHU216HW,2013-12-19 10:34:00,
2013-12-19 04:36:00,39.7,34.3,29.71,SSW,203,3.5,5.3,81,0.00,,,0.00,WUHU216HW,2013-12-19 10:36:00,
2013-12-19 04:37:00,39.7,34.3,29.71,SSW,203,3.5,5.3,81,0.00,,,0.00,WUHU216HW,2013-12-19 10:37:00,
2013-12-19 04:38:00,39.9,34.5,29.71,SSW,203,3.3,5.3,81,0.00,,,0.00,WUHU216HW,2013-12-19 10:38:00,
2013-12-19 04:39:00,39.9,34.5,29.71,SSW,203,3.3,5.3,81,0.00,,,0.00,WUHU216HW,2013-12-19 10:39:00,
2013-12-19 04:40:00,39.9,34.5,29.71,South,180,2.6,5.3,81,0.00,,,0.00,WUHU216HW,2013-12-19 10:40:00,
2013-12-19 04:41:00,39.9,34.5,29.71,South,180,2.6,5.3,81,0.00,,,0.00,WUHU216HW,2013-12-19 10:41:00,
2013-12-19 04:43:00,39.9,34.5,29.71,SSW,203,3.3,4.0,81,0.00,,,0.00,WUHU216HW,2013-12-19 10:43:00,
2013-12-19 04:44:00,39.9,34.5,29.71,SSW,203,3.5,4.0,81,0.00,,,0.00,WUHU216HW,2013-12-19 10:44:00,
2013-12-19 04:45:00,39.9,34.5,29.71,SSW,203,3.5,3.5,81,0.00,,,0.00,WUHU216HW,2013-12-19 10:45:00,
2013-12-19 04:46:00,39.9,34.5,29.71,SSW,203,2.4,3.5,81,0.00,,,0.00,WUHU216HW,2013-12-19 10:46:00,
2013-12-19 04:48:00,40.1,34.4,29.72,South,180,2.9,3.5,80,0.00,,,0.00,WUHU216HW,2013-12-19 10:48:00,
2013-12-19 04:49:00,40.1,34.4,29.72,South,180,2.9,3.5,80,0.00,,,0.00,WUHU216HW,2013-12-19 10:49:00,
2013-12-19 04:50:00,40.1,34.4,29.71,South,180,2.9,3.5,80,0.00,,,0.00,WUHU216HW,2013-12-19 10:50:00,
2013-12-19 04:52:00,40.1,34.4,29.72,SSW,203,2.9,3.5,80,0.00,,,0.00,WUHU216HW,2013-12-19 10:52:00,
2013-12-19 04:53:00,40.1,34.4,29.72,SSW,203,0.0,3.5,80,0.00,,,0.00,WUHU216HW,2013-12-19 10:53:00,
2013-12-19 04:54:00,40.1,34.4,29.72,SSW,203,0.0,3.5,80,0.00,,,0.00,WUHU216HW,2013-12-19 10:54:00,
2013-12-19 04:55:00,39.9,34.2,29.72,SSW,203,0.0,2.9,80,0.00,,,0.00,WUHU216HW,2013-12-19 10:55:00,
2013-12-19 04:57:00,39.9,34.2,29.72,SSW,203,0.0,2.9,80,0.00,,,0.00,WUHU216HW,2013-12-19 10:57:00,
2013-12-19 04:58:00,39.9,34.2,29.72,SSW,203,0.0,2.9,80,0.00,,,0.00,WUHU216HW,2013-12-19 10:58:00,
2013-12-19 04:59:00,39.9,34.2,29.72,NNW,338,0.0,2.9,80,0.00,,,0.00,WUHU216HW,2013-12-19 10:59:00,
2013-12-19 05:01:00,39.9,34.2,29.72,North,0,0.0,2.9,80,0.00,,,0.00,WUHU216HW,2013-12-19 11:01:00,
2013-12-19 05:02:00,39.9,34.2,29.72,North,0,0.0,0.0,80,0.00,,,0.00,WUHU216HW,2013-12-19 11:02:00,
2013-12-19 05:03:00,39.9,34.2,29.73,North,0,1.3,1.3,80,0.00,,,0.00,WUHU216HW,2013-12-19 11:03:00,
2013-12-19 05:04:00,39.9,34.2,29.73,North,0,1.3,1.3,80,0.00,,,0.00,WUHU216HW,2013-12-19 11:04:00,
2013-12-19 05:06:00,39.7,34.1,29.73,North,0,0.8,1.3,80,0.00,,,0.00,WUHU216HW,2013-12-19 11:06:00,
2013-12-19 05:07:00,39.7,34.1,29.73,North,0,0.8,1.3,80,0.00,,,0.00,WUHU216HW,2013-12-19 11:07:00,
2013-12-19 05:09:00,39.7,34.1,29.73,North,0,0.0,1.3,80,0.00,,,0.00,WUHU216HW,2013-12-19 11:09:00,
2013-12-19 05:11:00,39.5,33.9,29.72,North,0,0.0,1.3,80,0.00,,,0.00,WUHU216HW,2013-12-19 11:11:00,
2013-12-19 05:12:00,39.3,33.7,29.72,North,0,0.0,1.3,80,0.00,,,0.00,WUHU216HW,2013-12-19 11:12:00,
2013-12-19 05:14:00,39.3,33.7,29.73,North,0,0.0,1.3,80,0.00,,,0.00,WUHU216HW,2013-12-19 11:14:00,
2013-12-19 05:15:00,39.3,33.7,29.73,North,0,0.0,0.8,80,0.00,,,0.00,WUHU216HW,2013-12-19 11:15:00,
2013-12-19 05:16:00,39.3,33.7,29.73,North,0,0.0,0.8,80,0.00,,,0.00,WUHU216HW,2013-12-19 11:16:00,
2013-12-19 05:18:00,39.3,33.7,29.73,North,0,0.0,0.0,80,0.00,,,0.00,WUHU216HW,2013-12-19 11:18:00,
2013-12-19 05:19:00,39.3,33.7,29.73,North,0,0.0,0.0,80,0.00,,,0.00,WUHU216HW,2013-12-19 11:19:00,
2013-12-19 05:20:00,39.3,33.7,29.73,North,0,0.0,0.0,80,0.00,,,0.00,WUHU216HW,2013-12-19 11:20:00,
2013-12-19 05:21:00,39.0,33.4,29.73,North,0,0.0,0.0,80,0.00,,,0.00,WUHU216HW,2013-12-19 11:21:00,
2013-12-19 05:23:00,39.0,33.4,29.73,North,0,0.0,0.0,80,0.00,,,0.00,WUHU216HW,2013-12-19 11:23:00,
2013-12-19 05:25:00,39.0,33.4,29.73,North,0,0.0,0.0,80,0.00,,,0.00,WUHU216HW,2013-12-19 11:25:00,
2013-12-19 05:26:00,39.0,33.4,29.73,North,0,0.0,0.0,80,0.00,,,0.00,WUHU216HW,2013-12-19 11:26:00,
2013-12-19 05:28:00,39.0,33.7,29.72,North,0,0.0,0.0,81,0.00,,,0.00,WUHU216HW,2013-12-19 11:28:00,
2013-12-19 05:30:00,39.0,33.7,29.72,North,0,0.0,0.0,81,0.00,,,0.00,WUHU216HW,2013-12-19 11:30:00,
2013-12-19 05:31:00,39.0,33.7,29.73,North,0,0.0,0.0,81,0.00,,,0.00,WUHU216HW,2013-12-19 11:31:00,
2013-12-19 05:33:00,39.0,33.7,29.73,North,0,0.0,0.0,81,0.00,,,0.00,WUHU216HW,2013-12-19 11:33:00,
2013-12-19 05:35:00,39.0,33.7,29.72,North,0,0.0,0.0,81,0.00,,,0.00,WUHU216HW,2013-12-19 11:35:00,
2013-12-19 05:36:00,39.0,33.7,29.72,NNE,23,2.0,2.0,81,0.00,,,0.00,WUHU216HW,2013-12-19 11:36:00,
2013-12-19 05:39:00,38.8,33.5,29.72,NNE,23,2.4,2.4,81,0.00,,,0.00,WUHU216HW,2013-12-19 11:39:00,
2013-12-19 05:40:00,38.4,32.9,29.73,NNE,23,2.4,2.4,80,0.00,,,0.00,WUHU216HW,2013-12-19 11:40:00,
2013-12-19 05:41:00,38.4,32.9,29.72,NNE,23,2.4,2.4,80,0.00,,,0.00,WUHU216HW,2013-12-19 11:41:00,
2013-12-19 05:42:00,38.4,32.9,29.72,NNE,23,3.3,3.3,80,0.00,,,0.00,WUHU216HW,2013-12-19 11:42:00,
2013-12-19 05:45:00,38.3,32.7,29.73,NNE,23,1.3,3.3,80,0.00,,,0.00,WUHU216HW,2013-12-19 11:45:00,
2013-12-19 05:47:00,38.1,32.5,29.72,NNE,23,0.0,3.3,80,0.00,,,0.00,WUHU216HW,2013-12-19 11:47:00,
2013-12-19 05:50:00,37.7,32.3,29.72,NNE,23,0.6,3.8,80,0.00,,,0.00,WUHU216HW,2013-12-19 11:50:00,
2013-12-19 05:51:00,37.7,32.1,29.72,NNE,23,0.6,3.8,80,0.00,,,0.00,WUHU216HW,2013-12-19 11:51:00,
2013-12-19 05:52:00,37.7,32.1,29.72,NNE,23,0.6,3.8,80,0.00,,,0.00,WUHU216HW,2013-12-19 11:52:00,
2013-12-19 05:55:00,37.2,31.6,29.72,NNE,23,2.0,3.8,80,0.00,,,0.00,WUHU216HW,2013-12-19 11:55:00,
2013-12-19 05:56:00,37.2,31.6,29.72,NNE,23,2.0,3.8,80,0.00,,,0.00,WUHU216HW,2013-12-19 11:56:00,
2013-12-19 05:57:00,37.2,31.6,29.72,NNE,23,2.9,3.8,80,0.00,,,0.00,WUHU216HW,2013-12-19 11:57:00,
2013-12-19 05:58:00,37.2,31.6,29.72,NNE,23,2.9,3.8,80,0.00,,,0.00,WUHU216HW,2013-12-19 11:58:00,
2013-12-19 06:01:00,36.6,31.3,29.72,NNE,23,1.1,2.9,81,0.00,,,0.00,WUHU216HW,2013-12-19 12:01:00,
2013-12-19 06:02:00,36.6,31.3,29.72,NNE,23,1.1,2.9,81,0.00,,,0.00,WUHU216HW,2013-12-19 12:02:00,
2013-12-19 06:04:00,36.6,31.3,29.73,NNE,23,2.4,2.9,81,0.00,,,0.00,WUHU216HW,2013-12-19 12:04:00,
2013-12-19 06:06:00,36.5,31.2,29.72,NNE,23,0.0,2.9,81,0.00,,,0.00,WUHU216HW,2013-12-19 12:06:00,
2013-12-19 06:07:00,36.5,31.2,29.73,NNE,23,0.0,2.9,81,0.00,,,0.00,WUHU216HW,2013-12-19 12:07:00,
2013-12-19 06:08:00,36.3,31.0,29.73,NNE,23,0.8,2.4,81,0.00,,,0.00,WUHU216HW,2013-12-19 12:08:00,
2013-12-19 06:09:00,36.3,31.0,29.73,NNE,23,0.8,2.4,81,0.00,,,0.00,WUHU216HW,2013-12-19 12:09:00,
2013-12-19 06:11:00,36.1,30.8,29.73,NNE,23,2.6,2.6,81,0.00,,,0.00,WUHU216HW,2013-12-19 12:11:00,
2013-12-19 06:12:00,36.1,30.8,29.73,NNE,23,1.1,2.6,81,0.00,,,0.00,WUHU216HW,2013-12-19 12:12:00,
2013-12-19 06:14:00,35.9,30.6,29.73,NNE,23,3.1,3.1,81,0.00,,,0.00,WUHU216HW,2013-12-19 12:14:00,
2013-12-19 06:15:00,35.9,30.6,29.73,NNE,23,3.1,3.1,81,0.00,,,0.00,WUHU216HW,2013-12-19 12:15:00,
2013-12-19 06:16:00,35.7,30.4,29.73,NNE,23,2.9,3.1,81,0.00,,,0.00,WUHU216HW,2013-12-19 12:16:00,
2013-12-19 06:17:00,35.7,30.4,29.73,NNE,23,2.9,3.1,81,0.00,,,0.00,WUHU216HW,2013-12-19 12:17:00,
2013-12-19 06:19:00,35.7,30.4,29.73,NNE,23,2.2,3.1,81,0.00,,,0.00,WUHU216HW,2013-12-19 12:19:00,
2013-12-19 06:20:00,35.7,30.4,29.73,NNE,23,2.2,3.1,81,0.00,,,0.00,WUHU216HW,2013-12-19 12:20:00,
2013-12-19 06:21:00,35.7,30.4,29.73,NNE,23,3.8,3.8,81,0.00,,,0.00,WUHU216HW,2013-12-19 12:21:00,
2013-12-19 06:22:00,35.7,30.4,29.73,NNE,23,3.8,3.8,81,0.00,,,0.00,WUHU216HW,2013-12-19 12:22:00,
2013-12-19 06:25:00,35.4,30.4,29.73,NNE,23,3.3,4.0,82,0.00,,,0.00,WUHU216HW,2013-12-19 12:25:00,
2013-12-19 06:26:00,35.4,30.4,29.73,NNE,23,3.3,4.0,82,0.00,,,0.00,WUHU216HW,2013-12-19 12:26:00,
2013-12-19 06:27:00,35.4,30.4,29.73,NNE,23,3.5,4.0,82,0.00,,,0.00,WUHU216HW,2013-12-19 12:27:00,
2013-12-19 06:30:00,35.4,30.4,29.73,NNE,23,4.0,4.0,82,0.00,,,0.00,WUHU216HW,2013-12-19 12:30:00,
2013-12-19 06:31:00,35.4,30.4,29.73,North,0,3.1,4.0,82,0.00,,,0.00,WUHU216HW,2013-12-19 12:31:00,
2013-12-19 06:33:00,35.4,30.7,29.74,NNE,23,3.3,4.0,83,0.00,,,0.00,WUHU216HW,2013-12-19 12:33:00,
2013-12-19 06:35:00,35.4,30.7,29.73,NNE,23,3.3,4.0,83,0.00,,,0.00,WUHU216HW,2013-12-19 12:35:00,
2013-12-19 06:36:00,35.4,30.7,29.73,NNE,23,3.3,4.0,83,0.00,,,0.00,WUHU216HW,2013-12-19 12:36:00,
2013-12-19 06:37:00,35.4,30.7,29.73,NNE,23,3.3,4.0,83,0.00,,,0.00,WUHU216HW,2013-12-19 12:37:00,
2013-12-19 06:38:00,35.4,30.7,29.73,NNE,23,3.5,4.0,83,0.00,,,0.00,WUHU216HW,2013-12-19 12:38:00,
2013-12-19 06:40:00,35.2,30.5,29.74,NNE,23,3.5,3.5,83,0.00,,,0.00,WUHU216HW,2013-12-19 12:40:00,
2013-12-19 06:41:00,35.2,30.5,29.73,NNE,23,3.5,3.5,83,0.00,,,0.00,WUHU216HW,2013-12-19 12:41:00,
2013-12-19 06:42:00,35.2,30.5,29.73,NNE,23,3.8,3.8,83,0.00,,,0.00,WUHU216HW,2013-12-19 12:42:00,
2013-12-19 06:43:00,35.2,30.5,29.73,NNE,23,3.8,3.8,83,0.00,,,0.00,WUHU216HW,2013-12-19 12:43:00,
2013-12-19 06:46:00,34.8,30.1,29.73,NNE,23,3.8,3.8,83,0.00,,,0.00,WUHU216HW,2013-12-19 12:46:00,
2013-12-19 06:47:00,34.8,30.1,29.73,NNE,23,3.8,3.8,83,0.00,,,0.00,WUHU216HW,2013-12-19 12:47:00,
2013-12-19 06:48:00,34.8,29.9,29.73,NE,45,1.3,3.8,83,0.00,,,0.00,WUHU216HW,2013-12-19 12:48:00,
2013-12-19 06:51:00,34.7,29.9,29.74,NE,45,3.5,3.8,83,0.00,,,0.00,WUHU216HW,2013-12-19 12:51:00,
2013-12-19 06:52:00,34.7,29.9,29.74,NE,45,3.5,3.8,83,0.00,,,0.00,WUHU216HW,2013-12-19 12:52:00,
2013-12-19 06:53:00,34.5,29.8,29.74,NNE,23,3.5,3.8,83,0.00,,,0.00,WUHU216HW,2013-12-19 12:53:00,
2013-12-19 06:56:00,34.5,29.8,29.74,NNE,23,4.2,4.2,83,0.00,,,0.00,WUHU216HW,2013-12-19 12:56:00,
2013-12-19 06:57:00,34.5,29.8,29.74,NNE,23,2.4,4.2,83,0.00,,,0.00,WUHU216HW,2013-12-19 12:57:00,
2013-12-19 06:58:00,34.5,29.8,29.74,NNE,23,2.4,4.2,83,0.00,,,0.00,WUHU216HW,2013-12-19 12:58:00,
2013-12-19 07:01:00,34.5,30.0,29.74,NNE,23,3.1,4.4,84,0.00,,,0.00,WUHU216HW,2013-12-19 13:01:00,
2013-12-19 07:02:00,34.5,30.0,29.74,NNE,23,3.1,4.4,84,0.00,,,0.00,WUHU216HW,2013-12-19 13:02:00,
2013-12-19 07:03:00,34.5,30.0,29.74,NNE,23,3.1,4.4,84,0.00,,,0.00,WUHU216HW,2013-12-19 13:03:00,
2013-12-19 07:04:00,34.5,30.0,29.74,NE,45,2.4,4.4,84,0.00,,,0.00,WUHU216HW,2013-12-19 13:04:00,
2013-12-19 07:06:00,34.5,30.0,29.73,NNE,23,6.2,6.2,84,0.00,,,0.00,WUHU216HW,2013-12-19 13:06:00,
2013-12-19 07:07:00,34.5,30.0,29.74,NNE,23,6.2,6.2,84,0.00,,,0.00,WUHU216HW,2013-12-19 13:07:00,
2013-12-19 07:08:00,34.5,30.0,29.73,NE,45,3.8,6.2,84,0.00,,,0.00,WUHU216HW,2013-12-19 13:08:00,
2013-12-19 07:09:00,34.5,30.0,29.73,NE,45,3.8,6.2,84,0.00,,,0.00,WUHU216HW,2013-12-19 13:09:00,
2013-12-19 07:11:00,34.7,30.2,29.73,NE,45,3.8,6.2,84,0.00,,,0.00,WUHU216HW,2013-12-19 13:11:00,
2013-12-19 07:13:00,34.7,30.2,29.73,NE,45,4.4,6.2,84,0.00,,,0.00,WUHU216HW,2013-12-19 13:13:00,
2013-12-19 07:14:00,34.7,30.2,29.74,NE,45,2.2,6.2,84,0.00,,,0.00,WUHU216HW,2013-12-19 13:14:00,
2013-12-19 07:18:00,34.5,30.0,29.73,NE,45,2.9,6.2,84,0.00,,,0.00,WUHU216HW,2013-12-19 13:18:00,
2013-12-19 07:19:00,34.5,30.0,29.73,NNE,23,3.1,4.4,84,0.00,,,0.00,WUHU216HW,2013-12-19 13:19:00,
2013-12-19 07:23:00,34.5,30.0,29.74,NE,45,0.0,3.1,84,0.00,,,0.00,WUHU216HW,2013-12-19 13:23:00,
2013-12-19 07:24:00,34.5,30.0,29.74,NE,45,0.0,3.1,84,0.00,,,0.00,WUHU216HW,2013-12-19 13:24:00,
2013-12-19 07:28:00,34.3,30.2,29.73,NE,45,2.4,3.1,85,0.00,,,0.00,WUHU216HW,2013-12-19 13:28:00,
2013-12-19 07:29:00,34.3,30.2,29.73,NNE,23,2.2,2.4,85,0.00,,,0.00,WUHU216HW,2013-12-19 13:29:00,
2013-12-19 07:33:00,34.3,30.2,29.74,NE,45,2.2,2.4,85,0.00,,,0.00,WUHU216HW,2013-12-19 13:33:00,
2013-12-19 07:34:00,34.3,30.2,29.74,NE,45,2.2,2.4,85,0.00,,,0.00,WUHU216HW,2013-12-19 13:34:00,
2013-12-19 07:35:00,34.3,30.2,29.74,NE,45,2.2,2.4,85,0.00,,,0.00,WUHU216HW,2013-12-19 13:35:00,
2013-12-19 07:38:00,34.3,30.2,29.74,NE,45,2.2,2.2,85,0.00,,,0.00,WUHU216HW,2013-12-19 13:38:00,
2013-12-19 07:39:00,34.3,30.2,29.74,NE,45,2.2,2.2,85,0.00,,,0.00,WUHU216HW,2013-12-19 13:39:00,
2013-12-19 07:40:00,34.3,30.2,29.74,NE,45,3.1,3.1,85,0.00,,,0.00,WUHU216HW,2013-12-19 13:40:00,
2013-12-19 07:43:00,34.3,30.2,29.73,NE,45,1.1,3.1,85,0.00,,,0.00,WUHU216HW,2013-12-19 13:43:00,
2013-12-19 07:44:00,34.3,30.2,29.73,NE,45,1.3,3.1,85,0.00,,,0.00,WUHU216HW,2013-12-19 13:44:00,
2013-12-19 07:45:00,34.3,30.2,29.73,NE,45,1.3,3.1,85,0.00,,,0.00,WUHU216HW,2013-12-19 13:45:00,
2013-12-19 07:48:00,34.3,30.2,29.74,ENE,68,0.0,3.1,85,0.00,,,0.00,WUHU216HW,2013-12-19 13:48:00,
2013-12-19 07:49:00,34.3,30.2,29.74,ENE,68,0.0,3.1,85,0.00,,,0.00,WUHU216HW,2013-12-19 13:49:00,
2013-12-19 07:50:00,34.3,30.2,29.75,East,90,0.0,3.1,85,0.00,,,0.00,WUHU216HW,2013-12-19 13:50:00,
2013-12-19 07:51:00,34.3,30.2,29.74,East,90,0.0,3.1,85,0.00,,,0.00,WUHU216HW,2013-12-19 13:51:00,
2013-12-19 07:54:00,34.3,30.2,29.75,NE,45,2.0,3.1,85,0.00,,,0.00,WUHU216HW,2013-12-19 13:54:00,
2013-12-19 07:55:00,34.3,30.2,29.75,NE,45,0.0,3.1,85,0.00,,,0.00,WUHU216HW,2013-12-19 13:55:00,
2013-12-19 07:56:00,34.3,30.2,29.75,NE,45,0.0,3.1,85,0.00,,,0.00,WUHU216HW,2013-12-19 13:56:00,
2013-12-19 07:59:00,34.3,30.2,29.75,NE,45,0.0,2.0,85,0.00,,,0.00,WUHU216HW,2013-12-19 13:59:00,
2013-12-19 08:00:00,34.3,30.2,29.75,NE,45,0.0,2.0,85,0.00,,,0.00,WUHU216HW,2013-12-19 14:00:00,
2013-12-19 08:01:00,34.3,30.2,29.75,NNE,23,1.3,2.0,85,0.00,,,0.00,WUHU216HW,2013-12-19 14:01:00,
2013-12-19 08:04:00,34.3,30.2,29.74,NE,45,0.0,1.3,85,0.00,,,0.00,WUHU216HW,2013-12-19 14:04:00,
2013-12-19 08:05:00,34.3,30.2,29.74,NE,45,1.1,1.3,85,0.00,,,0.00,WUHU216HW,2013-12-19 14:05:00,
2013-12-19 08:06:00,34.3,30.2,29.74,NE,45,1.1,1.3,85,0.00,,,0.00,WUHU216HW,2013-12-19 14:06:00,
2013-12-19 08:09:00,34.3,30.2,29.74,NE,45,3.1,3.1,85,0.00,,,0.00,WUHU216HW,2013-12-19 14:09:00,
2013-12-19 08:10:00,34.3,30.2,29.74,ENE,68,3.8,3.8,85,0.00,,,0.00,WUHU216HW,2013-12-19 14:10:00,
2013-12-19 08:11:00,34.3,30.2,29.74,ENE,68,3.8,3.8,85,0.00,,,0.00,WUHU216HW,2013-12-19 14:11:00,
2013-12-19 08:14:00,34.3,30.2,29.74,NE,45,1.7,3.8,85,0.00,,,0.00,WUHU216HW,2013-12-19 14:14:00,
2013-12-19 08:15:00,34.3,30.2,29.74,NE,45,1.7,3.8,85,0.00,,,0.00,WUHU216HW,2013-12-19 14:15:00,
2013-12-19 08:16:00,34.3,30.2,29.74,NE,45,2.4,3.8,85,0.00,,,0.00,WUHU216HW,2013-12-19 14:16:00,
2013-12-19 08:19:00,34.3,30.2,29.75,NE,45,1.1,3.8,85,0.00,,,0.00,WUHU216HW,2013-12-19 14:19:00,
2013-12-19 08:20:00,34.5,30.2,29.75,NE,45,1.1,3.8,85,0.00,,,0.00,WUHU216HW,2013-12-19 14:20:00,
2013-12-19 08:21:00,34.5,30.3,29.75,NE,45,0.8,2.9,85,0.00,,,0.00,WUHU216HW,2013-12-19 14:21:00,
2013-12-19 08:22:00,34.5,30.3,29.74,NE,45,0.8,2.9,85,0.00,,,0.00,WUHU216HW,2013-12-19 14:22:00,
2013-12-19 08:25:00,34.5,30.3,29.75,NNE,23,2.9,2.9,85,0.00,,,0.00,WUHU216HW,2013-12-19 14:25:00,
2013-12-19 08:26:00,34.5,30.3,29.75,NNE,23,2.9,2.9,85,0.00,,,0.00,WUHU216HW,2013-12-19 14:26:00,
2013-12-19 08:27:00,34.5,30.3,29.75,NE,45,3.8,3.8,85,0.00,,,0.00,WUHU216HW,2013-12-19 14:27:00,
2013-12-19 08:30:00,34.7,30.5,29.74,NE,45,1.7,3.8,85,0.00,,,0.00,WUHU216HW,2013-12-19 14:30:00,
2013-12-19 08:31:00,34.8,30.7,29.74,NE,45,1.7,3.8,85,0.00,,,0.00,WUHU216HW,2013-12-19 14:31:00,
2013-12-19 08:32:00,34.8,30.7,29.74,NE,45,1.7,3.8,85,0.00,,,0.00,WUHU216HW,2013-12-19 14:32:00,
2013-12-19 08:33:00,34.8,30.7,29.74,NNE,23,0.0,3.8,85,0.00,,,0.00,WUHU216HW,2013-12-19 14:33:00,
2013-12-19 08:36:00,34.8,30.7,29.74,NE,45,0.0,3.8,85,0.00,,,0.00,WUHU216HW,2013-12-19 14:36:00,
2013-12-19 08:37:00,34.8,30.7,29.75,NE,45,0.0,3.8,85,0.00,,,0.00,WUHU216HW,2013-12-19 14:37:00,
2013-12-19 08:38:00,35.0,30.9,29.75,NE,45,0.0,1.7,85,0.00,,,0.00,WUHU216HW,2013-12-19 14:38:00,
2013-12-19 08:41:00,35.2,31.1,29.75,NE,45,0.0,1.7,85,0.00,,,0.00,WUHU216HW,2013-12-19 14:41:00,
2013-12-19 08:42:00,35.2,31.1,29.75,NNE,23,1.1,1.1,85,0.00,,,0.00,WUHU216HW,2013-12-19 14:42:00,
2013-12-19 08:43:00,35.2,31.1,29.75,NNE,23,1.1,1.1,85,0.00,,,0.00,WUHU216HW,2013-12-19 14:43:00,
2013-12-19 08:46:00,35.2,31.1,29.75,NNE,23,2.0,2.0,85,0.00,,,0.00,WUHU216HW,2013-12-19 14:46:00,
2013-12-19 08:47:00,35.2,31.1,29.75,NNE,23,2.0,2.0,85,0.00,,,0.00,WUHU216HW,2013-12-19 14:47:00,
2013-12-19 08:48:00,35.2,31.1,29.75,NNE,23,2.0,2.0,85,0.00,,,0.00,WUHU216HW,2013-12-19 14:48:00,
2013-12-19 08:51:00,35.2,31.1,29.75,NNE,23,2.0,2.0,85,0.00,,,0.00,WUHU216HW,2013-12-19 14:51:00,
2013-12-19 08:52:00,35.2,31.1,29.75,NNE,23,2.0,2.0,85,0.00,,,0.00,WUHU216HW,2013-12-19 14:52:00,
2013-12-19 08:53:00,35.4,31.2,29.75,NNE,23,1.7,2.0,85,0.00,,,0.00,WUHU216HW,2013-12-19 14:53:00,
2013-12-19 08:57:00,35.4,31.2,29.76,NNE,23,0.0,2.0,85,0.00,,,0.00,WUHU216HW,2013-12-19 14:57:00,
2013-12-19 08:58:00,35.4,31.2,29.76,NNE,23,0.0,2.0,85,0.00,,,0.00,WUHU216HW,2013-12-19 14:58:00,
2013-12-19 08:59:00,35.4,31.2,29.75,NNE,23,0.0,2.0,85,0.00,,,0.00,WUHU216HW,2013-12-19 14:59:00,
2013-12-19 09:02:00,35.7,31.6,29.75,NNE,23,0.0,1.7,85,0.00,,,0.00,WUHU216HW,2013-12-19 15:02:00,
2013-12-19 09:03:00,35.7,31.6,29.75,NE,45,0.0,1.7,85,0.00,,,0.00,WUHU216HW,2013-12-19 15:03:00,
2013-12-19 09:04:00,35.7,31.6,29.75,NE,45,0.0,0.0,85,0.00,,,0.00,WUHU216HW,2013-12-19 15:04:00,
2013-12-19 09:07:00,35.9,31.8,29.75,NE,45,0.0,0.0,85,0.00,,,0.00,WUHU216HW,2013-12-19 15:07:00,
2013-12-19 09:08:00,36.1,32.0,29.75,NE,45,0.0,0.0,85,0.00,,,0.00,WUHU216HW,2013-12-19 15:08:00,
2013-12-19 09:09:00,36.1,32.0,29.75,NE,45,0.0,0.0,85,0.00,,,0.00,WUHU216HW,2013-12-19 15:09:00,
2013-12-19 09:12:00,36.3,32.1,29.76,ENE,68,0.0,0.0,85,0.00,,,0.00,WUHU216HW,2013-12-19 15:12:00,
2013-12-19 09:13:00,36.3,32.1,29.76,ENE,68,0.0,0.0,85,0.00,,,0.00,WUHU216HW,2013-12-19 15:13:00,
2013-12-19 09:14:00,36.3,32.1,29.76,East,90,0.0,0.0,85,0.00,,,0.00,WUHU216HW,2013-12-19 15:14:00,
2013-12-19 09:17:00,36.3,32.1,29.76,ENE,68,0.0,0.0,85,0.00,,,0.00,WUHU216HW,2013-12-19 15:17:00,
2013-12-19 09:18:00,36.5,32.3,29.76,NE,45,0.0,0.0,85,0.00,,,0.00,WUHU216HW,2013-12-19 15:18:00,
2013-12-19 09:19:00,36.5,32.3,29.76,NE,45,0.0,0.0,85,0.00,,,0.00,WUHU216HW,2013-12-19 15:19:00,
2013-12-19 09:20:00,36.6,32.3,29.76,NE,45,0.0,0.0,85,0.00,,,0.00,WUHU216HW,2013-12-19 15:20:00,
2013-12-19 09:22:00,36.6,32.5,29.76,NE,45,0.0,0.0,85,0.00,,,0.00,WUHU216HW,2013-12-19 15:22:00,
2013-12-19 09:23:00,36.6,32.5,29.76,NE,45,0.0,0.0,85,0.00,,,0.00,WUHU216HW,2013-12-19 15:23:00,
2013-12-19 09:24:00,36.6,32.5,29.76,NE,45,0.0,0.0,85,0.00,,,0.00,WUHU216HW,2013-12-19 15:24:00,
2013-12-19 09:25:00,37.0,32.9,29.76,NE,45,0.0,0.0,85,0.00,,,0.00,WUHU216HW,2013-12-19 15:25:00,
2013-12-19 09:27:00,37.0,32.9,29.75,ENE,68,0.8,0.8,85,0.00,,,0.00,WUHU216HW,2013-12-19 15:27:00,
2013-12-19 09:28:00,37.0,32.9,29.76,ENE,68,0.8,0.8,85,0.00,,,0.00,WUHU216HW,2013-12-19 15:28:00,
2013-12-19 09:29:00,37.2,33.0,29.76,ENE,68,0.0,0.8,85,0.00,,,0.00,WUHU216HW,2013-12-19 15:29:00,
2013-12-19 09:30:00,37.2,33.0,29.76,East,90,0.0,0.8,85,0.00,,,0.00,WUHU216HW,2013-12-19 15:30:00,
2013-12-19 09:31:00,37.2,33.0,29.76,East,90,0.0,0.8,85,0.00,,,0.00,WUHU216HW,2013-12-19 15:31:00,
2013-12-19 09:33:00,37.2,33.0,29.76,NE,45,0.8,0.8,85,0.00,,,0.00,WUHU216HW,2013-12-19 15:33:00,
2013-12-19 09:34:00,37.2,33.0,29.75,NE,45,0.8,0.8,85,0.00,,,0.00,WUHU216HW,2013-12-19 15:34:00,
2013-12-19 09:35:00,37.2,33.1,29.76,NNE,23,0.8,0.8,84,0.00,,,0.00,WUHU216HW,2013-12-19 15:35:00,
2013-12-19 09:36:00,37.5,33.1,29.76,NNE,23,0.8,0.8,84,0.00,,,0.00,WUHU216HW,2013-12-19 15:36:00,
2013-12-19 09:38:00,37.5,33.1,29.76,ENE,68,0.8,0.8,84,0.00,,,0.00,WUHU216HW,2013-12-19 15:38:00,
2013-12-19 09:39:00,37.5,33.1,29.76,ENE,68,0.8,0.8,84,0.00,,,0.00,WUHU216HW,2013-12-19 15:39:00,
2013-12-19 09:40:00,37.7,33.3,29.76,NE,45,1.7,1.7,84,0.00,,,0.00,WUHU216HW,2013-12-19 15:40:00,
2013-12-19 09:41:00,37.7,33.3,29.75,NE,45,1.7,1.7,84,0.00,,,0.00,WUHU216HW,2013-12-19 15:41:00,
2013-12-19 09:43:00,37.9,33.5,29.76,ENE,68,1.7,1.7,84,0.00,,,0.00,WUHU216HW,2013-12-19 15:43:00,
2013-12-19 09:44:00,37.9,33.5,29.76,NE,45,0.0,1.7,84,0.00,,,0.00,WUHU216HW,2013-12-19 15:44:00,
2013-12-19 09:45:00,37.9,33.5,29.76,NE,45,0.0,1.7,84,0.00,,,0.00,WUHU216HW,2013-12-19 15:45:00,
2013-12-19 09:46:00,38.1,33.5,29.76,NE,45,0.0,1.7,84,0.00,,,0.00,WUHU216HW,2013-12-19 15:46:00,
2013-12-19 09:48:00,38.1,34.1,29.76,ENE,68,0.0,1.7,85,0.00,,,0.00,WUHU216HW,2013-12-19 15:48:00,
2013-12-19 09:50:00,38.3,34.1,29.77,ENE,68,0.0,1.7,85,0.00,,,0.00,WUHU216HW,2013-12-19 15:50:00,
2013-12-19 09:51:00,38.4,34.3,29.77,ENE,68,0.0,1.7,85,0.00,,,0.00,WUHU216HW,2013-12-19 15:51:00,
2013-12-19 09:53:00,38.4,34.3,29.76,ENE,68,0.8,1.7,85,0.00,,,0.00,WUHU216HW,2013-12-19 15:53:00,
2013-12-19 09:55:00,38.8,34.4,29.76,NE,45,1.1,1.1,84,0.00,,,0.00,WUHU216HW,2013-12-19 15:55:00,
2013-12-19 09:57:00,38.8,34.4,29.76,NNE,23,0.0,1.1,84,0.00,,,0.00,WUHU216HW,2013-12-19 15:57:00,
2013-12-19 09:58:00,38.8,34.4,29.77,NNE,23,0.0,1.1,84,0.00,,,0.00,WUHU216HW,2013-12-19 15:58:00,
2013-12-19 10:00:00,39.0,34.5,29.77,North,0,1.7,1.7,84,0.00,,,0.00,WUHU216HW,2013-12-19 16:00:00,
2013-12-19 10:01:00,39.3,34.9,29.77,North,0,0.0,1.7,84,0.00,,,0.00,WUHU216HW,2013-12-19 16:01:00,
2013-12-19 10:02:00,39.3,34.9,29.77,North,0,0.0,1.7,84,0.00,,,0.00,WUHU216HW,2013-12-19 16:02:00,
2013-12-19 10:03:00,39.3,34.9,29.77,NNE,23,0.0,1.7,84,0.00,,,0.00,WUHU216HW,2013-12-19 16:03:00,
2013-12-19 10:05:00,39.3,34.9,29.77,NE,45,0.0,1.7,84,0.00,,,0.00,WUHU216HW,2013-12-19 16:05:00,
2013-12-19 10:06:00,39.3,34.9,29.77,NE,45,0.0,1.7,84,0.00,,,0.00,WUHU216HW,2013-12-19 16:06:00,
2013-12-19 10:07:00,39.3,34.6,29.77,NNE,23,2.6,2.6,83,0.00,,,0.00,WUHU216HW,2013-12-19 16:07:00,
2013-12-19 10:08:00,39.3,34.6,29.77,NNE,23,2.6,2.6,83,0.00,,,0.00,WUHU216HW,2013-12-19 16:08:00,
2013-12-19 10:09:00,39.3,34.6,29.77,NNE,23,2.6,2.6,83,0.00,,,0.00,WUHU216HW,2013-12-19 16:09:00,
2013-12-19 10:10:00,39.5,34.8,29.77,NNE,23,0.0,2.6,83,0.00,,,0.00,WUHU216HW,2013-12-19 16:10:00,
2013-12-19 10:11:00,39.5,34.8,29.76,NNE,23,0.0,2.6,83,0.00,,,0.00,WUHU216HW,2013-12-19 16:11:00,
2013-12-19 10:12:00,39.5,34.8,29.76,NE,45,1.1,2.6,83,0.00,,,0.00,WUHU216HW,2013-12-19 16:12:00,
2013-12-19 10:13:00,39.5,34.8,29.76,NE,45,1.1,2.6,83,0.00,,,0.00,WUHU216HW,2013-12-19 16:13:00,
2013-12-19 10:14:00,39.7,34.9,29.76,NE,45,0.8,2.6,83,0.00,,,0.00,WUHU216HW,2013-12-19 16:14:00,
2013-12-19 10:15:00,39.7,34.9,29.76,NE,45,0.8,2.6,83,0.00,,,0.00,WUHU216HW,2013-12-19 16:15:00,
2013-12-19 10:16:00,39.7,34.9,29.76,NE,45,1.7,2.6,83,0.00,,,0.00,WUHU216HW,2013-12-19 16:16:00,
2013-12-19 10:18:00,39.7,34.9,29.76,ENE,68,0.0,2.6,83,0.00,,,0.00,WUHU216HW,2013-12-19 16:18:00,
2013-12-19 10:19:00,39.7,34.9,29.76,ENE,68,0.0,1.7,83,0.00,,,0.00,WUHU216HW,2013-12-19 16:19:00,
2013-12-19 10:20:00,39.9,35.1,29.76,East,90,0.0,1.7,83,0.00,,,0.00,WUHU216HW,2013-12-19 16:20:00,
2013-12-19 10:21:00,39.9,35.1,29.77,East,90,0.0,1.7,83,0.00,,,0.00,WUHU216HW,2013-12-19 16:21:00,
2013-12-19 10:23:00,40.1,35.3,29.77,ESE,113,0.0,1.7,83,0.00,,,0.00,WUHU216HW,2013-12-19 16:23:00,
2013-12-19 10:25:00,40.2,35.4,29.77,East,90,0.0,1.7,83,0.00,,,0.00,WUHU216HW,2013-12-19 16:25:00,
2013-12-19 10:26:00,40.2,35.4,29.77,East,90,0.0,1.7,83,0.00,,,0.00,WUHU216HW,2013-12-19 16:26:00,
2013-12-19 10:27:00,40.4,35.6,29.77,ESE,113,0.0,0.0,83,0.00,,,0.00,WUHU216HW,2013-12-19 16:27:00,
2013-12-19 10:28:00,40.4,35.6,29.77,ESE,113,0.0,0.0,83,0.00,,,0.00,WUHU216HW,2013-12-19 16:28:00,
2013-12-19 10:31:00,40.8,35.6,29.76,East,90,0.0,2.2,82,0.00,,,0.00,WUHU216HW,2013-12-19 16:31:00,
2013-12-19 10:32:00,40.8,35.6,29.76,East,90,0.0,2.2,82,0.00,,,0.00,WUHU216HW,2013-12-19 16:32:00,
2013-12-19 10:33:00,40.8,35.6,29.76,NE,45,2.4,2.4,82,0.00,,,0.00,WUHU216HW,2013-12-19 16:33:00,
2013-12-19 10:36:00,41.0,35.8,29.77,NE,45,0.0,2.4,82,0.00,,,0.00,WUHU216HW,2013-12-19 16:36:00,
2013-12-19 10:37:00,41.1,35.8,29.77,NE,45,0.0,2.4,82,0.00,,,0.00,WUHU216HW,2013-12-19 16:37:00,
2013-12-19 10:38:00,41.1,36.0,29.77,East,90,0.0,2.4,82,0.00,,,0.00,WUHU216HW,2013-12-19 16:38:00,
2013-12-19 10:41:00,41.1,36.0,29.77,NNE,23,2.2,2.4,82,0.00,,,0.00,WUHU216HW,2013-12-19 16:41:00,
2013-12-19 10:42:00,41.3,36.2,29.77,NNE,23,1.1,2.4,82,0.00,,,0.00,WUHU216HW,2013-12-19 16:42:00,
2013-12-19 10:43:00,41.3,36.2,29.77,NNE,23,1.1,2.4,82,0.00,,,0.00,WUHU216HW,2013-12-19 16:43:00,
2013-12-19 10:46:00,41.5,36.3,29.77,NE,45,0.0,2.2,82,0.00,,,0.00,WUHU216HW,2013-12-19 16:46:00,
2013-12-19 10:47:00,41.5,36.3,29.77,NE,45,0.0,2.2,82,0.00,,,0.00,WUHU216HW,2013-12-19 16:47:00,
2013-12-19 10:48:00,41.5,36.0,29.77,NE,45,1.1,2.2,81,0.00,,,0.00,WUHU216HW,2013-12-19 16:48:00,
2013-12-19 10:49:00,41.5,36.0,29.76,NE,45,1.1,2.2,81,0.00,,,0.00,WUHU216HW,2013-12-19 16:49:00,
2013-12-19 10:52:00,41.5,36.0,29.76,NNE,23,0.0,1.3,81,0.00,,,0.00,WUHU216HW,2013-12-19 16:52:00,
2013-12-19 10:53:00,41.5,36.0,29.76,NNE,23,0.0,1.3,81,0.00,,,0.00,WUHU216HW,2013-12-19 16:53:00,
2013-12-19 10:54:00,41.5,36.0,29.76,NNE,23,0.0,1.3,81,0.00,,,0.00,WUHU216HW,2013-12-19 16:54:00,
2013-12-19 10:57:00,41.7,36.2,29.76,ENE,68,1.1,1.7,81,0.00,,,0.00,WUHU216HW,2013-12-19 16:57:00,
2013-12-19 10:58:00,41.7,36.2,29.76,ENE,68,1.1,1.7,81,0.00,,,0.00,WUHU216HW,2013-12-19 16:58:00,
2013-12-19 10:59:00,41.7,36.2,29.76,NNE,23,2.4,2.4,81,0.00,,,0.00,WUHU216HW,2013-12-19 16:59:00,
2013-12-19 11:00:00,41.7,36.2,29.76,NNE,23,2.4,2.4,81,0.00,,,0.00,WUHU216HW,2013-12-19 17:00:00,
2013-12-19 11:02:00,41.9,36.4,29.76,NNE,23,1.1,2.4,81,0.00,,,0.00,WUHU216HW,2013-12-19 17:02:00,
2013-12-19 11:03:00,41.9,36.4,29.76,NNE,23,1.1,2.4,81,0.00,,,0.00,WUHU216HW,2013-12-19 17:03:00,
2013-12-19 11:04:00,41.7,35.9,29.75,NE,45,2.4,2.4,80,0.00,,,0.00,WUHU216HW,2013-12-19 17:04:00,
2013-12-19 11:06:00,41.7,35.9,29.75,North,0,0.0,2.4,80,0.00,,,0.00,WUHU216HW,2013-12-19 17:06:00,
2013-12-19 11:07:00,41.7,35.9,29.75,North,0,0.0,2.4,80,0.00,,,0.00,WUHU216HW,2013-12-19 17:07:00,
2013-12-19 11:08:00,41.7,35.9,29.75,NNE,23,1.5,2.4,80,0.00,,,0.00,WUHU216HW,2013-12-19 17:08:00,
2013-12-19 11:09:00,41.7,35.9,29.75,North,0,3.1,3.1,80,0.00,,,0.00,WUHU216HW,2013-12-19 17:09:00,
2013-12-19 11:11:00,41.7,35.9,29.75,North,0,3.1,3.1,80,0.00,,,0.00,WUHU216HW,2013-12-19 17:11:00,
2013-12-19 11:12:00,41.9,36.1,29.75,NNE,23,2.2,3.1,80,0.00,,,0.00,WUHU216HW,2013-12-19 17:12:00,
2013-12-19 11:13:00,41.9,36.1,29.75,NNE,23,2.2,3.1,80,0.00,,,0.00,WUHU216HW,2013-12-19 17:13:00,
2013-12-19 11:15:00,41.7,35.9,29.75,NNE,23,4.0,4.0,80,0.00,,,0.00,WUHU216HW,2013-12-19 17:15:00,
2013-12-19 11:17:00,41.7,35.9,29.75,NNE,23,3.5,4.0,80,0.00,,,0.00,WUHU216HW,2013-12-19 17:17:00,
2013-12-19 11:18:00,41.9,35.9,29.75,North,0,3.5,4.0,80,0.00,,,0.00,WUHU216HW,2013-12-19 17:18:00,
2013-12-19 11:19:00,41.9,36.1,29.75,North,0,3.5,4.0,80,0.00,,,0.00,WUHU216HW,2013-12-19 17:19:00,
2013-12-19 11:20:00,41.7,35.9,29.75,North,0,3.5,4.0,80,0.00,,,0.00,WUHU216HW,2013-12-19 17:20:00,
2013-12-19 11:22:00,41.7,35.9,29.75,NNE,23,2.4,4.0,80,0.00,,,0.00,WUHU216HW,2013-12-19 17:22:00,
2013-12-19 11:24:00,41.7,35.9,29.75,NNE,23,2.4,4.0,80,0.00,,,0.00,WUHU216HW,2013-12-19 17:24:00,
2013-12-19 11:25:00,41.7,35.9,29.75,NNW,338,2.2,3.5,80,0.00,,,0.00,WUHU216HW,2013-12-19 17:25:00,
2013-12-19 11:28:00,41.7,35.9,29.75,North,0,0.8,3.5,80,0.00,,,0.00,WUHU216HW,2013-12-19 17:28:00,
2013-12-19 11:29:00,41.7,35.9,29.75,NE,45,0.0,3.5,80,0.00,,,0.00,WUHU216HW,2013-12-19 17:29:00,
2013-12-19 11:30:00,41.7,35.9,29.75,NE,45,0.0,3.5,80,0.00,,,0.00,WUHU216HW,2013-12-19 17:30:00,
2013-12-19 11:33:00,41.7,35.9,29.75,NNE,23,4.4,4.4,80,0.00,,,0.00,WUHU216HW,2013-12-19 17:33:00,
2013-12-19 11:34:00,41.7,35.9,29.75,NNE,23,4.4,4.4,80,0.00,,,0.00,WUHU216HW,2013-12-19 17:34:00,
2013-12-19 11:36:00,41.7,35.9,29.75,North,0,3.5,4.4,80,0.00,,,0.00,WUHU216HW,2013-12-19 17:36:00,
2013-12-19 11:38:00,41.7,35.9,29.75,North,0,5.1,5.1,80,0.00,,,0.00,WUHU216HW,2013-12-19 17:38:00,
2013-12-19 11:39:00,41.7,35.9,29.75,North,0,5.1,5.1,80,0.00,,,0.00,WUHU216HW,2013-12-19 17:39:00,
2013-12-19 11:40:00,41.7,35.9,29.75,NNE,23,8.2,8.2,80,0.00,,,0.00,WUHU216HW,2013-12-19 17:40:00,
2013-12-19 11:41:00,41.7,35.9,29.75,NNE,23,8.2,8.2,80,0.00,,,0.00,WUHU216HW,2013-12-19 17:41:00,
2013-12-19 11:43:00,41.5,35.7,29.75,NNE,23,2.4,8.2,80,0.00,,,0.00,WUHU216HW,2013-12-19 17:43:00,
2013-12-19 11:44:00,41.5,35.7,29.75,NNE,23,3.8,8.2,80,0.00,,,0.00,WUHU216HW,2013-12-19 17:44:00,
2013-12-19 11:45:00,41.5,35.7,29.74,NNE,23,3.8,8.2,80,0.00,,,0.00,WUHU216HW,2013-12-19 17:45:00,
2013-12-19 11:46:00,41.5,35.7,29.74,NNE,23,3.5,8.2,80,0.00,,,0.00,WUHU216HW,2013-12-19 17:46:00,
2013-12-19 11:48:00,41.3,35.6,29.74,NNE,23,0.8,8.2,80,0.00,,,0.00,WUHU216HW,2013-12-19 17:48:00,
2013-12-19 11:49:00,41.3,35.6,29.74,NNE,23,0.8,8.2,80,0.00,,,0.00,WUHU216HW,2013-12-19 17:49:00,
2013-12-19 11:50:00,41.3,35.4,29.74,ENE,68,2.6,8.2,80,0.00,,,0.00,WUHU216HW,2013-12-19 17:50:00,
2013-12-19 11:51:00,41.1,35.4,29.74,ENE,68,2.6,3.8,80,0.00,,,0.00,WUHU216HW,2013-12-19 17:51:00,
2013-12-19 11:53:00,41.1,35.4,29.74,NNE,23,4.4,4.4,80,0.00,,,0.00,WUHU216HW,2013-12-19 17:53:00,
2013-12-19 11:54:00,41.1,35.4,29.73,NNE,23,4.4,4.4,80,0.00,,,0.00,WUHU216HW,2013-12-19 17:54:00,
2013-12-19 11:55:00,41.1,35.4,29.73,NNE,23,0.0,4.4,80,0.00,,,0.00,WUHU216HW,2013-12-19 17:55:00,
2013-12-19 11:56:00,41.1,35.4,29.73,NNE,23,0.0,4.4,80,0.00,,,0.00,WUHU216HW,2013-12-19 17:56:00,
2013-12-19 11:58:00,41.1,35.4,29.73,NNE,23,1.5,4.4,80,0.00,,,0.00,WUHU216HW,2013-12-19 17:58:00,
2013-12-19 11:59:00,41.1,35.4,29.73,NNE,23,1.5,4.4,80,0.00,,,0.00,WUHU216HW,2013-12-19 17:59:00,
2013-12-19 12:00:00,41.1,35.4,29.73,NNE,23,1.5,4.4,80,0.00,,,0.00,WUHU216HW,2013-12-19 18:00:00,
2013-12-19 12:01:00,40.8,35.0,29.73,East,90,1.5,4.4,80,0.00,,,0.00,WUHU216HW,2013-12-19 18:01:00,
2013-12-19 12:03:00,41.0,35.2,29.73,NNE,23,0.0,1.5,80,0.00,,,0.00,WUHU216HW,2013-12-19 18:03:00,
2013-12-19 12:04:00,41.0,35.2,29.73,NNE,23,0.0,1.5,80,0.00,,,0.00,WUHU216HW,2013-12-19 18:04:00,
2013-12-19 12:05:00,41.0,35.2,29.73,NE,45,3.5,3.5,80,0.00,,,0.00,WUHU216HW,2013-12-19 18:05:00,
2013-12-19 12:06:00,41.0,35.2,29.73,NE,45,3.5,3.5,80,0.00,,,0.00,WUHU216HW,2013-12-19 18:06:00,
2013-12-19 12:09:00,41.0,35.2,29.73,NNE,23,1.3,3.5,80,0.00,,,0.00,WUHU216HW,2013-12-19 18:09:00,
2013-12-19 12:10:00,41.0,35.2,29.72,ENE,68,1.3,3.5,80,0.00,,,0.00,WUHU216HW,2013-12-19 18:10:00,
2013-12-19 12:11:00,41.0,35.2,29.72,ENE,68,1.3,3.5,80,0.00,,,0.00,WUHU216HW,2013-12-19 18:11:00,
2013-12-19 12:14:00,41.1,35.4,29.72,NNE,23,1.5,3.5,80,0.00,,,0.00,WUHU216HW,2013-12-19 18:14:00,
2013-12-19 12:15:00,41.1,35.4,29.72,NNE,23,1.5,3.5,80,0.00,,,0.00,WUHU216HW,2013-12-19 18:15:00,
2013-12-19 12:16:00,41.1,35.4,29.73,NE,45,2.4,3.5,80,0.00,,,0.00,WUHU216HW,2013-12-19 18:16:00,
2013-12-19 12:19:00,41.1,35.4,29.72,NNE,23,1.1,2.4,80,0.00,,,0.00,WUHU216HW,2013-12-19 18:19:00,
2013-12-19 12:20:00,41.1,35.4,29.72,ENE,68,4.4,4.4,80,0.00,,,0.00,WUHU216HW,2013-12-19 18:20:00,
2013-12-19 12:21:00,41.1,35.4,29.72,ENE,68,4.4,4.4,80,0.00,,,0.00,WUHU216HW,2013-12-19 18:21:00,
2013-12-19 12:22:00,41.1,35.4,29.72,ENE,68,4.4,4.4,80,0.00,,,0.00,WUHU216HW,2013-12-19 18:22:00,
2013-12-19 12:24:00,41.0,35.2,29.72,ENE,68,4.4,4.4,80,0.00,,,0.00,WUHU216HW,2013-12-19 18:24:00,
2013-12-19 12:25:00,41.1,35.4,29.72,NE,45,2.6,4.4,80,0.00,,,0.00,WUHU216HW,2013-12-19 18:25:00,
2013-12-19 12:26:00,41.1,35.4,29.72,NE,45,2.6,4.4,80,0.00,,,0.00,WUHU216HW,2013-12-19 18:26:00,
2013-12-19 12:27:00,41.0,35.2,29.72,NNE,23,2.9,4.4,80,0.00,,,0.00,WUHU216HW,2013-12-19 18:27:00,
2013-12-19 12:29:00,41.1,35.4,29.72,NNE,23,2.2,4.4,80,0.00,,,0.00,WUHU216HW,2013-12-19 18:29:00,
2013-12-19 12:30:00,41.1,35.4,29.72,NNE,23,2.2,4.4,80,0.00,,,0.00,WUHU216HW,2013-12-19 18:30:00,
2013-12-19 12:31:00,40.8,35.0,29.72,NNE,23,2.9,4.4,80,0.00,,,0.00,WUHU216HW,2013-12-19 18:31:00,
2013-12-19 12:32:00,40.8,35.0,29.72,NNE,23,2.9,4.4,80,0.00,,,0.00,WUHU216HW,2013-12-19 18:32:00,
2013-12-19 12:35:00,40.8,35.0,29.72,NE,45,3.5,3.5,80,0.00,,,0.00,WUHU216HW,2013-12-19 18:35:00,
2013-12-19 12:36:00,40.8,35.0,29.72,NE,45,3.5,3.5,80,0.00,,,0.00,WUHU216HW,2013-12-19 18:36:00,
2013-12-19 12:37:00,40.8,35.0,29.72,ENE,68,4.2,4.2,80,0.00,,,0.00,WUHU216HW,2013-12-19 18:37:00,
2013-12-19 12:40:00,40.8,35.0,29.71,NE,45,3.8,4.2,80,0.00,,,0.00,WUHU216HW,2013-12-19 18:40:00,
2013-12-19 12:41:00,40.8,35.0,29.71,NE,45,3.8,4.2,80,0.00,,,0.00,WUHU216HW,2013-12-19 18:41:00,
2013-12-19 12:42:00,40.6,34.9,29.71,NE,45,4.0,4.2,80,0.00,,,0.00,WUHU216HW,2013-12-19 18:42:00,
2013-12-19 12:43:00,40.6,34.9,29.71,NE,45,4.0,4.2,80,0.00,,,0.00,WUHU216HW,2013-12-19 18:43:00,
2013-12-19 12:45:00,40.6,34.9,29.71,NE,45,2.9,4.2,80,0.00,,,0.00,WUHU216HW,2013-12-19 18:45:00,
2013-12-19 12:46:00,40.6,34.9,29.71,NE,45,4.6,4.6,80,0.00,,,0.00,WUHU216HW,2013-12-19 18:46:00,
2013-12-19 12:47:00,40.6,34.9,29.71,NE,45,4.6,4.6,80,0.00,,,0.00,WUHU216HW,2013-12-19 18:47:00,
2013-12-19 12:49:00,40.4,34.7,29.71,NNE,23,2.9,4.6,80,0.00,,,0.00,WUHU216HW,2013-12-19 18:49:00,
2013-12-19 12:51:00,40.2,34.5,29.70,NE,45,2.9,4.6,80,0.00,,,0.00,WUHU216HW,2013-12-19 18:51:00,
2013-12-19 12:52:00,40.2,34.5,29.71,NNE,23,3.8,4.6,80,0.00,,,0.00,WUHU216HW,2013-12-19 18:52:00,
2013-12-19 12:54:00,40.2,34.5,29.71,NNE,23,3.8,4.6,80,0.00,,,0.00,WUHU216HW,2013-12-19 18:54:00,
2013-12-19 12:56:00,40.2,34.5,29.70,East,90,3.8,4.6,80,0.00,,,0.00,WUHU216HW,2013-12-19 18:56:00,
2013-12-19 12:57:00,40.1,34.4,29.70,NE,45,4.0,4.0,80,0.00,,,0.00,WUHU216HW,2013-12-19 18:57:00,
2013-12-19 12:58:00,40.1,34.4,29.70,NE,45,4.0,4.0,80,0.00,,,0.00,WUHU216HW,2013-12-19 18:58:00,
2013-12-19 12:59:00,40.2,34.5,29.70,NE,45,1.5,4.0,80,0.00,,,0.00,WUHU216HW,2013-12-19 18:59:00,
2013-12-19 13:01:00,40.2,34.5,29.70,NE,45,3.1,4.0,80,0.00,,,0.00,WUHU216HW,2013-12-19 19:01:00,
2013-12-19 13:02:00,40.2,34.5,29.70,NE,45,3.1,4.0,80,0.00,,,0.00,WUHU216HW,2013-12-19 19:02:00,
2013-12-19 13:03:00,40.2,34.5,29.70,NE,45,3.5,4.0,80,0.00,,,0.00,WUHU216HW,2013-12-19 19:03:00,
2013-12-19 13:05:00,40.4,34.5,29.70,ENE,68,4.4,4.4,80,0.00,,,0.00,WUHU216HW,2013-12-19 19:05:00,
2013-12-19 13:06:00,40.4,34.7,29.70,ENE,68,4.4,4.4,80,0.00,,,0.00,WUHU216HW,2013-12-19 19:06:00,
2013-12-19 13:07:00,40.2,34.5,29.71,NE,45,2.4,4.4,80,0.00,,,0.00,WUHU216HW,2013-12-19 19:07:00,
2013-12-19 13:08:00,40.2,34.5,29.71,NE,45,2.4,4.4,80,0.00,,,0.00,WUHU216HW,2013-12-19 19:08:00,
2013-12-19 13:10:00,40.2,34.5,29.71,NE,45,5.1,5.1,80,0.00,,,0.00,WUHU216HW,2013-12-19 19:10:00,
2013-12-19 13:11:00,40.2,34.5,29.71,NE,45,5.1,5.1,80,0.00,,,0.00,WUHU216HW,2013-12-19 19:11:00,
2013-12-19 13:12:00,40.4,34.7,29.71,NNE,23,1.3,5.1,80,0.00,,,0.00,WUHU216HW,2013-12-19 19:12:00,
2013-12-19 13:13:00,40.4,34.7,29.71,NNE,23,1.3,5.1,80,0.00,,,0.00,WUHU216HW,2013-12-19 19:13:00,
2013-12-19 13:14:00,40.2,34.5,29.71,NNE,23,1.3,5.1,80,0.00,,,0.00,WUHU216HW,2013-12-19 19:14:00,
2013-12-19 13:16:00,40.2,34.5,29.70,North,0,0.8,5.1,80,0.00,,,0.00,WUHU216HW,2013-12-19 19:16:00,
2013-12-19 13:17:00,40.2,34.5,29.70,North,0,0.8,5.1,80,0.00,,,0.00,WUHU216HW,2013-12-19 19:17:00,
2013-12-19 13:18:00,40.2,34.5,29.70,North,0,2.4,5.1,80,0.00,,,0.00,WUHU216HW,2013-12-19 19:18:00,
2013-12-19 13:19:00,40.2,34.5,29.70,North,0,2.4,5.1,80,0.00,,,0.00,WUHU216HW,2013-12-19 19:19:00,
2013-12-19 13:21:00,40.2,34.5,29.70,NNE,23,2.6,2.6,80,0.00,,,0.00,WUHU216HW,2013-12-19 19:21:00,
2013-12-19 13:22:00,40.2,34.5,29.70,NNE,23,0.0,2.6,80,0.00,,,0.00,WUHU216HW,2013-12-19 19:22:00,
2013-12-19 13:24:00,40.2,34.5,29.70,NNE,23,0.0,2.6,80,0.00,,,0.00,WUHU216HW,2013-12-19 19:24:00,
2013-12-19 13:26:00,40.2,34.8,29.70,NNE,23,2.2,2.6,81,0.00,,,0.00,WUHU216HW,2013-12-19 19:26:00,
2013-12-19 13:27:00,40.1,34.7,29.70,NNE,23,1.7,2.6,81,0.00,,,0.00,WUHU216HW,2013-12-19 19:27:00,
2013-12-19 13:29:00,40.2,34.8,29.70,NE,45,0.0,2.6,81,0.00,,,0.00,WUHU216HW,2013-12-19 19:29:00,
2013-12-19 13:31:00,40.1,34.7,29.70,NNE,23,4.2,4.2,81,0.00,,,0.00,WUHU216HW,2013-12-19 19:31:00,
2013-12-19 13:32:00,40.1,34.7,29.70,NNE,23,4.2,4.2,81,0.00,,,0.00,WUHU216HW,2013-12-19 19:32:00,
2013-12-19 13:33:00,40.1,34.7,29.70,NE,45,3.1,4.2,81,0.00,,,0.00,WUHU216HW,2013-12-19 19:33:00,
2013-12-19 13:34:00,40.1,34.7,29.70,NE,45,3.1,4.2,81,0.00,,,0.00,WUHU216HW,2013-12-19 19:34:00,
2013-12-19 13:36:00,40.1,34.7,29.70,NE,45,2.2,4.2,81,0.00,,,0.00,WUHU216HW,2013-12-19 19:36:00,
2013-12-19 13:37:00,40.1,34.7,29.70,NE,45,2.2,4.2,81,0.00,,,0.00,WUHU216HW,2013-12-19 19:37:00,
2013-12-19 13:38:00,40.1,34.7,29.70,NE,45,2.2,4.2,81,0.00,,,0.00,WUHU216HW,2013-12-19 19:38:00,
2013-12-19 13:39:00,40.1,34.7,29.70,NNE,23,2.2,4.2,81,0.00,,,0.00,WUHU216HW,2013-12-19 19:39:00,
2013-12-19 13:40:00,40.1,34.7,29.69,NNE,23,2.2,4.2,81,0.00,,,0.00,WUHU216HW,2013-12-19 19:40:00,
2013-12-19 13:42:00,40.1,34.7,29.69,NNE,23,5.5,5.5,81,0.00,,,0.00,WUHU216HW,2013-12-19 19:42:00,
2013-12-19 13:43:00,40.1,34.7,29.69,NNE,23,5.5,5.5,81,0.00,,,0.00,WUHU216HW,2013-12-19 19:43:00,
2013-12-19 13:44:00,40.1,34.7,29.69,ESE,113,3.3,5.5,81,0.00,,,0.00,WUHU216HW,2013-12-19 19:44:00,
2013-12-19 13:45:00,40.1,34.7,29.69,ESE,113,3.3,5.5,81,0.00,,,0.00,WUHU216HW,2013-12-19 19:45:00,
2013-12-19 13:47:00,40.1,34.7,29.69,NNE,23,3.5,5.5,81,0.00,,,0.00,WUHU216HW,2013-12-19 19:47:00,
2013-12-19 13:49:00,40.1,34.7,29.69,ENE,68,2.6,5.5,81,0.00,,,0.00,WUHU216HW,2013-12-19 19:49:00,
2013-12-19 13:50:00,40.1,34.7,29.68,NNE,23,4.2,5.5,81,0.00,,,0.00,WUHU216HW,2013-12-19 19:50:00,
2013-12-19 13:52:00,40.1,34.7,29.69,ENE,68,7.1,7.1,81,0.00,,,0.00,WUHU216HW,2013-12-19 19:52:00,
2013-12-19 13:54:00,40.1,34.7,29.68,ENE,68,7.1,7.1,81,0.00,,,0.00,WUHU216HW,2013-12-19 19:54:00,
2013-12-19 13:55:00,40.1,34.7,29.68,NE,45,3.3,7.1,81,0.00,,,0.00,WUHU216HW,2013-12-19 19:55:00,
2013-12-19 13:57:00,40.1,34.7,29.68,East,90,3.8,7.1,81,0.00,,,0.00,WUHU216HW,2013-12-19 19:57:00,
2013-12-19 13:59:00,40.1,34.7,29.68,ENE,68,5.1,7.1,81,0.00,,,0.00,WUHU216HW,2013-12-19 19:59:00,
2013-12-19 14:00:00,40.1,34.7,29.68,ENE,68,5.1,7.1,81,0.00,,,0.00,WUHU216HW,2013-12-19 20:00:00,
2013-12-19 14:01:00,40.1,34.7,29.68,NE,45,5.5,7.1,81,0.00,,,0.00,WUHU216HW,2013-12-19 20:01:00,
2013-12-19 14:02:00,40.1,34.7,29.68,NE,45,5.5,7.1,81,0.00,,,0.00,WUHU216HW,2013-12-19 20:02:00,
2013-12-19 14:04:00,40.1,34.7,29.67,East,90,2.9,5.5,81,0.00,,,0.00,WUHU216HW,2013-12-19 20:04:00,
2013-12-19 14:05:00,40.1,34.7,29.67,East,90,2.9,5.5,81,0.00,,,0.00,WUHU216HW,2013-12-19 20:05:00,
2013-12-19 14:06:00,40.1,34.7,29.67,East,90,5.3,5.5,81,0.00,,,0.00,WUHU216HW,2013-12-19 20:06:00,
2013-12-19 14:07:00,40.2,34.8,29.67,ENE,68,3.8,5.5,81,0.00,,,0.00,WUHU216HW,2013-12-19 20:07:00,
2013-12-19 14:09:00,40.2,34.8,29.67,ENE,68,3.8,5.5,81,0.00,,,0.00,WUHU216HW,2013-12-19 20:09:00,
2013-12-19 14:10:00,40.2,34.8,29.67,ESE,113,3.1,5.5,81,0.00,,,0.00,WUHU216HW,2013-12-19 20:10:00,
2013-12-19 14:11:00,40.2,34.8,29.67,ESE,113,3.1,5.5,81,0.00,,,0.00,WUHU216HW,2013-12-19 20:11:00,
2013-12-19 14:12:00,40.4,35.0,29.67,ESE,113,2.6,5.3,81,0.00,,,0.00,WUHU216HW,2013-12-19 20:12:00,
2013-12-19 14:14:00,40.4,35.0,29.68,NE,45,2.9,5.3,81,0.00,,,0.00,WUHU216HW,2013-12-19 20:14:00,
2013-12-19 14:15:00,40.4,35.0,29.68,NE,45,2.9,5.3,81,0.00,,,0.00,WUHU216HW,2013-12-19 20:15:00,
2013-12-19 14:16:00,40.6,35.5,29.68,ESE,113,4.6,4.6,82,0.00,,,0.00,WUHU216HW,2013-12-19 20:16:00,
2013-12-19 14:17:00,40.6,35.5,29.68,ESE,113,4.6,4.6,82,0.00,,,0.00,WUHU216HW,2013-12-19 20:17:00,
2013-12-19 14:20:00,40.8,35.6,29.68,NE,45,4.9,4.9,82,0.00,,,0.00,WUHU216HW,2013-12-19 20:20:00,
2013-12-19 14:22:00,40.8,35.6,29.68,ENE,68,4.0,4.9,81,0.00,,,0.00,WUHU216HW,2013-12-19 20:22:00,
2013-12-19 14:23:00,40.8,35.3,29.68,ENE,68,4.0,4.9,81,0.00,,,0.00,WUHU216HW,2013-12-19 20:23:00,
2013-12-19 14:25:00,40.8,35.3,29.68,ENE,68,2.4,4.9,81,0.00,,,0.00,WUHU216HW,2013-12-19 20:25:00,
2013-12-19 14:26:00,40.8,35.3,29.68,ENE,68,2.4,4.9,81,0.00,,,0.00,WUHU216HW,2013-12-19 20:26:00,
2013-12-19 14:27:00,40.8,35.3,29.68,NE,45,3.5,4.9,81,0.00,,,0.00,WUHU216HW,2013-12-19 20:27:00,
2013-12-19 14:28:00,40.8,35.3,29.68,NE,45,3.5,4.9,81,0.00,,,0.00,WUHU216HW,2013-12-19 20:28:00,
2013-12-19 14:30:00,40.8,35.3,29.68,NE,45,2.2,4.9,81,0.00,,,0.00,WUHU216HW,2013-12-19 20:30:00,
2013-12-19 14:31:00,40.8,35.3,29.68,ENE,68,6.0,6.0,81,0.00,,,0.00,WUHU216HW,2013-12-19 20:31:00,
2013-12-19 14:32:00,40.8,35.3,29.68,ENE,68,6.0,6.0,81,0.00,,,0.00,WUHU216HW,2013-12-19 20:32:00,
2013-12-19 14:33:00,40.6,35.2,29.68,East,90,2.6,6.0,81,0.00,,,0.00,WUHU216HW,2013-12-19 20:33:00,
2013-12-19 14:36:00,40.8,35.3,29.68,ENE,68,2.4,6.0,81,0.00,,,0.00,WUHU216HW,2013-12-19 20:36:00,
2013-12-19 14:37:00,40.8,35.3,29.68,ENE,68,0.8,6.0,81,0.00,,,0.00,WUHU216HW,2013-12-19 20:37:00,
2013-12-19 14:38:00,40.8,35.3,29.68,ENE,68,0.8,6.0,81,0.00,,,0.00,WUHU216HW,2013-12-19 20:38:00,
2013-12-19 14:41:00,40.6,35.2,29.68,ENE,68,6.2,6.2,81,0.00,,,0.00,WUHU216HW,2013-12-19 20:41:00,
2013-12-19 14:42:00,40.6,35.2,29.68,East,90,1.7,6.2,81,0.00,,,0.00,WUHU216HW,2013-12-19 20:42:00,
2013-12-19 14:43:00,40.6,35.2,29.68,East,90,1.7,6.2,81,0.00,,,0.00,WUHU216HW,2013-12-19 20:43:00,
2013-12-19 14:47:00,40.8,35.6,29.68,East,90,2.9,6.2,82,0.00,,,0.00,WUHU216HW,2013-12-19 20:47:00,
2013-12-19 14:48:00,40.8,35.6,29.68,ENE,68,3.5,6.2,82,0.00,,,0.00,WUHU216HW,2013-12-19 20:48:00,
2013-12-19 14:49:00,40.8,35.6,29.68,ENE,68,3.5,6.2,82,0.00,,,0.00,WUHU216HW,2013-12-19 20:49:00,
2013-12-19 14:52:00,40.8,35.6,29.68,NE,45,4.9,5.1,82,0.00,,,0.00,WUHU216HW,2013-12-19 20:52:00,
2013-12-19 14:53:00,40.8,35.6,29.68,NE,45,4.9,5.1,82,0.00,,,0.00,WUHU216HW,2013-12-19 20:53:00,
2013-12-19 14:54:00,40.8,35.6,29.68,ENE,68,3.8,5.1,82,0.00,,,0.00,WUHU216HW,2013-12-19 20:54:00,
2013-12-19 14:57:00,40.8,35.6,29.68,East,90,4.4,5.1,82,0.00,,,0.00,WUHU216HW,2013-12-19 20:57:00,
2013-12-19 14:58:00,40.8,35.6,29.68,East,90,4.4,5.1,82,0.00,,,0.00,WUHU216HW,2013-12-19 20:58:00,
2013-12-19 14:59:00,40.8,35.6,29.68,NE,45,3.5,5.1,82,0.00,,,0.00,WUHU216HW,2013-12-19 20:59:00,
2013-12-19 15:02:00,40.8,35.6,29.68,ESE,113,3.8,4.9,82,0.00,,,0.00,WUHU216HW,2013-12-19 21:02:00,
2013-12-19 15:03:00,40.8,35.6,29.67,ENE,68,0.8,4.4,82,0.00,,,0.00,WUHU216HW,2013-12-19 21:03:00,
2013-12-19 15:04:00,40.8,35.6,29.68,ENE,68,0.8,4.4,82,0.00,,,0.00,WUHU216HW,2013-12-19 21:04:00,
2013-12-19 15:08:00,40.8,35.6,29.68,ENE,68,4.4,4.4,82,0.00,,,0.00,WUHU216HW,2013-12-19 21:08:00,
2013-12-19 15:09:00,40.8,35.6,29.68,ENE,68,1.5,4.4,82,0.00,,,0.00,WUHU216HW,2013-12-19 21:09:00,
2013-12-19 15:13:00,40.8,35.6,29.68,East,90,2.2,4.4,82,0.00,,,0.00,WUHU216HW,2013-12-19 21:13:00,
2013-12-19 15:14:00,40.8,35.6,29.68,NE,45,4.4,4.4,82,0.00,,,0.00,WUHU216HW,2013-12-19 21:14:00,
2013-12-19 15:18:00,40.8,35.6,29.68,NE,45,0.8,4.4,82,0.00,,,0.00,WUHU216HW,2013-12-19 21:18:00,
2013-12-19 15:19:00,40.8,35.6,29.68,NE,45,0.8,4.4,82,0.00,,,0.00,WUHU216HW,2013-12-19 21:19:00,
2013-12-19 15:20:00,40.6,35.5,29.68,NE,45,6.2,6.2,82,0.00,,,0.00,WUHU216HW,2013-12-19 21:20:00,
2013-12-19 15:23:00,40.6,35.5,29.69,NE,45,2.6,6.2,82,0.00,,,0.00,WUHU216HW,2013-12-19 21:23:00,
2013-12-19 15:24:00,40.6,35.5,29.68,NE,45,4.6,6.2,82,0.00,,,0.00,WUHU216HW,2013-12-19 21:24:00,
2013-12-19 15:25:00,40.6,35.5,29.69,NE,45,4.6,6.2,82,0.00,,,0.00,WUHU216HW,2013-12-19 21:25:00,
2013-12-19 15:28:00,40.6,35.5,29.69,NNE,23,3.5,6.2,82,0.00,,,0.00,WUHU216HW,2013-12-19 21:28:00,
2013-12-19 15:29:00,40.6,35.5,29.69,ENE,68,5.5,6.2,82,0.00,,,0.00,WUHU216HW,2013-12-19 21:29:00,
2013-12-19 15:30:00,40.6,35.5,29.69,ENE,68,5.5,6.2,82,0.00,,,0.00,WUHU216HW,2013-12-19 21:30:00,
2013-12-19 15:31:00,40.4,35.3,29.69,ENE,68,4.9,5.5,82,0.00,,,0.00,WUHU216HW,2013-12-19 21:31:00,
2013-12-19 15:34:00,40.2,35.1,29.69,NNE,23,2.2,5.5,82,0.00,,,0.00,WUHU216HW,2013-12-19 21:34:00,
2013-12-19 15:35:00,40.2,35.1,29.69,NNE,23,2.2,5.5,82,0.00,,,0.00,WUHU216HW,2013-12-19 21:35:00,
2013-12-19 15:37:00,40.2,35.1,29.69,ENE,68,2.9,5.5,82,0.00,,,0.00,WUHU216HW,2013-12-19 21:37:00,
2013-12-19 15:39:00,40.2,35.1,29.69,NE,45,4.2,5.5,82,0.00,,,0.00,WUHU216HW,2013-12-19 21:39:00,
2013-12-19 15:40:00,40.2,35.1,29.69,NE,45,4.2,4.9,82,0.00,,,0.00,WUHU216HW,2013-12-19 21:40:00,
2013-12-19 15:42:00,40.2,35.1,29.69,NE,45,9.1,9.1,82,0.00,,,0.00,WUHU216HW,2013-12-19 21:42:00,
2013-12-19 15:44:00,40.2,35.0,29.69,NE,45,0.8,9.1,82,0.00,,,0.00,WUHU216HW,2013-12-19 21:44:00,
2013-12-19 15:45:00,40.1,35.0,29.69,NE,45,0.8,9.1,82,0.00,,,0.00,WUHU216HW,2013-12-19 21:45:00,
2013-12-19 15:47:00,40.1,35.0,29.69,NE,45,4.2,9.1,82,0.00,,,0.00,WUHU216HW,2013-12-19 21:47:00,
2013-12-19 15:49:00,40.2,35.1,29.69,ENE,68,6.2,9.1,82,0.00,,,0.00,WUHU216HW,2013-12-19 21:49:00,
2013-12-19 15:50:00,40.1,35.0,29.69,NE,45,4.6,9.1,82,0.00,,,0.00,WUHU216HW,2013-12-19 21:50:00,
2013-12-19 15:52:00,40.1,35.3,29.69,NNE,23,2.6,9.1,83,0.00,,,0.00,WUHU216HW,2013-12-19 21:52:00,
2013-12-19 15:53:00,40.1,35.3,29.69,NNE,23,2.6,6.2,83,0.00,,,0.00,WUHU216HW,2013-12-19 21:53:00,
2013-12-19 15:54:00,40.1,35.3,29.69,NNE,23,3.8,6.2,83,0.00,,,0.00,WUHU216HW,2013-12-19 21:54:00,
2013-12-19 15:55:00,40.1,35.3,29.69,NNE,23,3.8,6.2,83,0.00,,,0.00,WUHU216HW,2013-12-19 21:55:00,
2013-12-19 15:56:00,40.1,35.3,29.69,NNE,23,3.8,6.2,83,0.00,,,0.00,WUHU216HW,2013-12-19 21:56:00,
2013-12-19 15:57:00,40.1,35.3,29.70,ENE,68,2.2,6.2,83,0.00,,,0.00,WUHU216HW,2013-12-19 21:57:00,
2013-12-19 15:58:00,40.1,35.3,29.70,ENE,68,2.2,6.2,83,0.00,,,0.00,WUHU216HW,2013-12-19 21:58:00,
2013-12-19 15:59:00,39.9,35.1,29.70,NNE,23,4.2,4.6,83,0.00,,,0.00,WUHU216HW,2013-12-19 21:59:00,
2013-12-19 16:01:00,39.9,35.1,29.70,NE,45,2.9,4.2,83,0.00,,,0.00,WUHU216HW,2013-12-19 22:01:00,
2013-12-19 16:02:00,39.9,35.1,29.69,NE,45,2.9,4.2,83,0.00,,,0.00,WUHU216HW,2013-12-19 22:02:00,
2013-12-19 16:03:00,39.9,35.1,29.69,NE,45,1.5,4.2,83,0.00,,,0.00,WUHU216HW,2013-12-19 22:03:00,
2013-12-19 16:04:00,39.9,35.1,29.69,North,0,5.3,5.3,83,0.00,,,0.00,WUHU216HW,2013-12-19 22:04:00,
2013-12-19 16:06:00,39.9,35.1,29.69,North,0,5.3,5.3,83,0.00,,,0.00,WUHU216HW,2013-12-19 22:06:00,
2013-12-19 16:07:00,39.9,35.1,29.69,North,0,5.3,5.3,83,0.00,,,0.00,WUHU216HW,2013-12-19 22:07:00,
2013-12-19 16:09:00,39.9,35.1,29.69,NE,45,4.6,5.3,83,0.00,,,0.00,WUHU216HW,2013-12-19 22:09:00,
2013-12-19 16:10:00,39.9,35.1,29.69,NE,45,4.6,5.3,83,0.00,,,0.00,WUHU216HW,2013-12-19 22:10:00,
2013-12-19 16:11:00,39.9,35.1,29.69,NE,45,4.6,5.3,83,0.00,,,0.00,WUHU216HW,2013-12-19 22:11:00,
2013-12-19 16:12:00,39.9,35.1,29.69,NE,45,4.6,5.3,83,0.00,,,0.00,WUHU216HW,2013-12-19 22:12:00,
2013-12-19 16:13:00,39.9,35.1,29.69,NE,45,4.6,5.3,83,0.00,,,0.00,WUHU216HW,2013-12-19 22:13:00,
2013-12-19 16:15:00,39.9,35.1,29.69,NE,45,4.4,5.3,83,0.00,,,0.00,WUHU216HW,2013-12-19 22:15:00,
2013-12-19 16:16:00,39.9,35.1,29.69,NE,45,4.4,5.1,83,0.00,,,0.00,WUHU216HW,2013-12-19 22:16:00,
2013-12-19 16:17:00,39.9,35.1,29.68,NE,45,4.4,5.1,83,0.00,,,0.00,WUHU216HW,2013-12-19 22:17:00,
2013-12-19 16:18:00,39.9,35.1,29.68,NNE,23,5.5,5.5,83,0.00,,,0.00,WUHU216HW,2013-12-19 22:18:00,
2013-12-19 16:20:00,39.7,34.9,29.68,North,0,4.4,5.5,83,0.00,,,0.00,WUHU216HW,2013-12-19 22:20:00,
2013-12-19 16:21:00,39.7,34.9,29.68,North,0,4.4,5.5,83,0.00,,,0.00,WUHU216HW,2013-12-19 22:21:00,
2013-12-19 16:22:00,39.7,34.9,29.68,NE,45,3.3,5.5,83,0.00,,,0.00,WUHU216HW,2013-12-19 22:22:00,
2013-12-19 16:23:00,39.7,34.9,29.68,NE,45,3.3,5.5,83,0.00,,,0.00,WUHU216HW,2013-12-19 22:23:00,
2013-12-19 16:25:00,39.7,34.9,29.69,NE,45,4.6,5.5,83,0.00,,,0.00,WUHU216HW,2013-12-19 22:25:00,
2013-12-19 16:26:00,39.7,34.9,29.68,NE,45,4.6,5.5,83,0.00,,,0.00,WUHU216HW,2013-12-19 22:26:00,
2013-12-19 16:27:00,39.7,34.9,29.68,NNE,23,2.6,5.5,83,0.00,,,0.00,WUHU216HW,2013-12-19 22:27:00,
2013-12-19 16:28:00,39.7,34.9,29.69,NNE,23,2.6,5.5,83,0.00,,,0.00,WUHU216HW,2013-12-19 22:28:00,
2013-12-19 16:30:00,39.5,34.8,29.69,NE,45,4.6,4.6,83,0.00,,,0.00,WUHU216HW,2013-12-19 22:30:00,
2013-12-19 16:31:00,39.5,34.8,29.69,NNE,23,2.9,4.6,83,0.00,,,0.00,WUHU216HW,2013-12-19 22:31:00,
2013-12-19 16:32:00,39.5,34.8,29.69,NNE,23,2.9,4.6,83,0.00,,,0.00,WUHU216HW,2013-12-19 22:32:00,
2013-12-19 16:33:00,39.5,34.8,29.69,NE,45,2.9,4.6,83,0.00,,,0.00,WUHU216HW,2013-12-19 22:33:00,
2013-12-19 16:34:00,39.5,34.8,29.68,NE,45,2.9,4.6,83,0.00,,,0.00,WUHU216HW,2013-12-19 22:34:00,
2013-12-19 16:35:00,39.3,34.6,29.68,NNE,23,3.5,4.6,83,0.00,,,0.00,WUHU216HW,2013-12-19 22:35:00,
2013-12-19 16:36:00,39.3,34.6,29.69,NNE,23,3.5,4.6,83,0.00,,,0.00,WUHU216HW,2013-12-19 22:36:00,
2013-12-19 16:38:00,39.3,34.9,29.69,NE,45,6.9,6.9,84,0.00,,,0.00,WUHU216HW,2013-12-19 22:38:00,
2013-12-19 16:39:00,39.3,34.9,29.69,NE,45,3.5,6.9,84,0.00,,,0.00,WUHU216HW,2013-12-19 22:39:00,
2013-12-19 16:40:00,39.3,34.9,29.69,NE,45,3.5,6.9,84,0.00,,,0.00,WUHU216HW,2013-12-19 22:40:00,
2013-12-19 16:41:00,39.3,34.9,29.69,NE,45,3.5,6.9,84,0.00,,,0.00,WUHU216HW,2013-12-19 22:41:00,
2013-12-19 16:43:00,39.2,34.7,29.69,NNE,23,7.1,7.1,84,0.00,,,0.00,WUHU216HW,2013-12-19 22:43:00,
2013-12-19 16:44:00,39.0,34.5,29.69,NE,45,3.8,7.1,84,0.00,,,0.00,WUHU216HW,2013-12-19 22:44:00,
2013-12-19 16:45:00,39.0,34.5,29.69,NE,45,3.8,7.1,84,0.00,,,0.00,WUHU216HW,2013-12-19 22:45:00,
2013-12-19 16:47:00,39.0,34.5,29.69,East,90,5.3,7.1,84,0.00,,,0.00,WUHU216HW,2013-12-19 22:47:00,
2013-12-19 16:48:00,39.0,34.5,29.69,ENE,68,4.9,7.1,84,0.00,,,0.00,WUHU216HW,2013-12-19 22:48:00,
2013-12-19 16:49:00,39.0,34.5,29.68,ENE,68,4.9,7.1,84,0.00,,,0.00,WUHU216HW,2013-12-19 22:49:00,
2013-12-19 16:50:00,39.0,34.5,29.68,ENE,68,4.2,7.1,84,0.00,,,0.00,WUHU216HW,2013-12-19 22:50:00,
2013-12-19 16:52:00,39.0,34.5,29.68,NE,45,4.6,7.1,84,0.00,,,0.00,WUHU216HW,2013-12-19 22:52:00,
2013-12-19 16:53:00,39.0,34.5,29.68,NE,45,4.6,5.3,84,0.00,,,0.00,WUHU216HW,2013-12-19 22:53:00,
2013-12-19 16:54:00,39.0,34.5,29.68,NNE,23,5.8,5.8,84,0.00,,,0.00,WUHU216HW,2013-12-19 22:54:00,
2013-12-19 16:55:00,39.0,34.5,29.69,NNE,23,5.8,5.8,84,0.00,,,0.00,WUHU216HW,2013-12-19 22:55:00,
2013-12-19 16:57:00,38.8,34.4,29.69,NNE,23,6.2,6.2,84,0.00,,,0.00,WUHU216HW,2013-12-19 22:57:00,
2013-12-19 16:58:00,38.8,34.4,29.69,NNE,23,6.2,6.2,84,0.00,,,0.00,WUHU216HW,2013-12-19 22:58:00,
2013-12-19 16:59:00,38.8,34.4,29.69,NE,45,5.3,6.2,84,0.00,,,0.00,WUHU216HW,2013-12-19 22:59:00,
2013-12-19 17:00:00,38.8,34.4,29.69,NE,45,5.3,6.2,84,0.00,,,0.00,WUHU216HW,2013-12-19 23:00:00,
2013-12-19 17:01:00,38.8,34.4,29.69,NNE,23,6.2,6.2,84,0.00,,,0.00,WUHU216HW,2013-12-19 23:01:00,
2013-12-19 17:02:00,38.8,34.4,29.69,NNE,23,6.2,6.2,84,0.00,,,0.00,WUHU216HW,2013-12-19 23:02:00,
2013-12-19 17:04:00,38.8,34.4,29.69,NNE,23,5.3,6.2,84,0.00,,,0.00,WUHU216HW,2013-12-19 23:04:00,
2013-12-19 17:05:00,38.8,34.7,29.69,ENE,68,4.2,6.2,85,0.00,,,0.00,WUHU216HW,2013-12-19 23:05:00,
2013-12-19 17:06:00,38.8,34.7,29.69,ENE,68,4.2,6.2,85,0.00,,,0.00,WUHU216HW,2013-12-19 23:06:00,
2013-12-19 17:08:00,38.8,34.7,29.69,NE,45,5.1,6.2,85,0.00,,,0.00,WUHU216HW,2013-12-19 23:08:00,
2013-12-19 17:09:00,38.8,34.3,29.69,NE,45,6.0,6.2,85,0.00,,,0.00,WUHU216HW,2013-12-19 23:09:00,
2013-12-19 17:11:00,38.4,34.3,29.68,NE,45,6.0,6.2,85,0.00,,,0.00,WUHU216HW,2013-12-19 23:11:00,
2013-12-19 17:13:00,38.4,34.3,29.69,NE,45,5.8,6.0,85,0.00,,,0.00,WUHU216HW,2013-12-19 23:13:00,
2013-12-19 17:14:00,38.4,34.3,29.69,NE,45,3.5,6.0,85,0.00,,,0.00,WUHU216HW,2013-12-19 23:14:00,
2013-12-19 17:15:00,38.4,34.3,29.69,NE,45,3.5,6.0,85,0.00,,,0.00,WUHU216HW,2013-12-19 23:15:00,
2013-12-19 17:16:00,38.3,34.1,29.69,NNE,23,3.3,6.0,85,0.00,,,0.00,WUHU216HW,2013-12-19 23:16:00,
2013-12-19 17:17:00,38.3,34.1,29.69,NNE,23,3.3,6.0,85,0.00,,,0.00,WUHU216HW,2013-12-19 23:17:00,
2013-12-19 17:19:00,38.3,34.1,29.69,NNE,23,3.3,6.0,85,0.00,,,0.00,WUHU216HW,2013-12-19 23:19:00,
2013-12-19 17:20:00,38.1,33.9,29.68,ENE,68,5.3,6.0,85,0.00,,,0.00,WUHU216HW,2013-12-19 23:20:00,
2013-12-19 17:21:00,38.1,33.9,29.68,ENE,68,5.3,5.8,85,0.00,,,0.00,WUHU216HW,2013-12-19 23:21:00,
2013-12-19 17:22:00,38.1,33.9,29.68,NNE,23,5.5,5.8,85,0.00,,,0.00,WUHU216HW,2013-12-19 23:22:00,
2013-12-19 17:24:00,38.1,33.9,29.68,NE,45,7.6,7.6,85,0.00,,,0.00,WUHU216HW,2013-12-19 23:24:00,
2013-12-19 17:25:00,37.9,34.0,29.68,NE,45,7.6,7.6,86,0.00,,,0.00,WUHU216HW,2013-12-19 23:25:00,
2013-12-19 17:26:00,37.9,34.0,29.68,NE,45,7.6,7.6,86,0.00,,,0.00,WUHU216HW,2013-12-19 23:26:00,
2013-12-19 17:27:00,37.9,34.0,29.68,NNE,23,5.1,7.6,86,0.00,,,0.00,WUHU216HW,2013-12-19 23:27:00,
2013-12-19 17:28:00,37.9,34.0,29.68,NNE,23,5.1,7.6,86,0.00,,,0.00,WUHU216HW,2013-12-19 23:28:00,
2013-12-19 17:29:00,37.9,34.0,29.68,NE,45,3.5,7.6,86,0.00,,,0.00,WUHU216HW,2013-12-19 23:29:00,
2013-12-19 17:30:00,37.9,34.0,29.68,NE,45,3.5,7.6,86,0.00,,,0.00,WUHU216HW,2013-12-19 23:30:00,
2013-12-19 17:32:00,37.7,33.9,29.68,NNE,23,3.3,7.6,86,0.00,,,0.00,WUHU216HW,2013-12-19 23:32:00,
2013-12-19 17:33:00,37.7,33.9,29.68,NE,45,5.5,7.6,86,0.00,,,0.00,WUHU216HW,2013-12-19 23:33:00,
2013-12-19 17:35:00,37.5,33.7,29.68,NNE,23,5.3,7.6,86,0.00,,,0.00,WUHU216HW,2013-12-19 23:35:00,
2013-12-19 17:36:00,37.5,33.7,29.68,NNE,23,5.3,5.5,86,0.00,,,0.00,WUHU216HW,2013-12-19 23:36:00,
2013-12-19 17:37:00,37.5,33.7,29.68,NNE,23,2.9,5.5,86,0.00,,,0.00,WUHU216HW,2013-12-19 23:37:00,
2013-12-19 17:38:00,37.5,33.7,29.68,North,0,5.1,5.5,86,0.00,,,0.00,WUHU216HW,2013-12-19 23:38:00,
2013-12-19 17:40:00,37.4,33.8,29.68,North,0,5.1,5.5,87,0.00,,,0.00,WUHU216HW,2013-12-19 23:40:00,
2013-12-19 17:41:00,37.4,33.8,29.68,North,0,5.1,5.5,87,0.00,,,0.00,WUHU216HW,2013-12-19 23:41:00,
2013-12-19 17:42:00,37.2,33.6,29.68,NE,45,6.7,6.7,87,0.00,,,0.00,WUHU216HW,2013-12-19 23:42:00,
2013-12-19 17:44:00,37.2,33.6,29.68,NE,45,6.2,6.7,87,0.00,,,0.00,WUHU216HW,2013-12-19 23:44:00,
2013-12-19 17:45:00,37.2,33.6,29.68,NE,45,6.2,6.7,87,0.00,,,0.00,WUHU216HW,2013-12-19 23:45:00,
2013-12-19 17:46:00,37.2,33.3,29.68,NE,45,4.4,6.7,86,0.00,,,0.00,WUHU216HW,2013-12-19 23:46:00,
2013-12-19 17:47:00,37.2,33.3,29.68,NE,45,4.4,6.7,86,0.00,,,0.00,WUHU216HW,2013-12-19 23:47:00,
2013-12-19 17:48:00,37.0,33.1,29.68,NE,45,7.3,7.3,86,0.00,,,0.00,WUHU216HW,2013-12-19 23:48:00,
2013-12-19 17:49:00,37.0,33.1,29.68,NE,45,7.3,7.3,86,0.00,,,0.00,WUHU216HW,2013-12-19 23:49:00,
2013-12-19 17:51:00,37.0,33.1,29.68,NNE,23,8.7,8.7,86,0.00,,,0.00,WUHU216HW,2013-12-19 23:51:00,
2013-12-19 17:52:00,36.8,33.2,29.68,NE,45,6.7,8.7,87,0.00,,,0.00,WUHU216HW,2013-12-19 23:52:00,
2013-12-19 17:53:00,36.8,33.2,29.68,NE,45,6.7,8.7,87,0.00,,,0.00,WUHU216HW,2013-12-19 23:53:00,
2013-12-19 17:55:00,36.6,33.1,29.68,NNE,23,2.0,8.7,87,0.00,,,0.00,WUHU216HW,2013-12-19 23:55:00,
2013-12-19 17:56:00,36.6,33.1,29.68,NNE,23,2.0,8.7,87,0.00,,,0.00,WUHU216HW,2013-12-19 23:56:00,
2013-12-19 17:57:00,36.5,32.9,29.68,NNE,23,4.2,8.7,87,0.00,,,0.00,WUHU216HW,2013-12-19 23:57:00,
2013-12-19 17:58:00,36.5,32.9,29.68,NNE,23,4.2,8.7,87,0.00,,,0.00,WUHU216HW,2013-12-19 23:58:00,
2013-12-19 18:00:00,36.5,32.9,29.68,NNE,23,5.3,8.7,87,0.00,,,0.00,WUHU216HW,2013-12-20 00:00:00,
2013-12-19 18:01:00,36.3,32.7,29.68,ENE,68,6.4,6.7,87,0.00,,,0.00,WUHU216HW,2013-12-20 00:01:00,
2013-12-19 18:02:00,36.3,32.7,29.68,ENE,68,6.4,6.7,87,0.00,,,0.00,WUHU216HW,2013-12-20 00:02:00,
2013-12-19 18:03:00,36.3,32.7,29.68,ENE,68,3.1,6.4,87,0.00,,,0.00,WUHU216HW,2013-12-20 00:03:00,
2013-12-19 18:05:00,36.3,32.7,29.68,NE,45,7.3,7.3,87,0.00,,,0.00,WUHU216HW,2013-12-20 00:05:00,
2013-12-19 18:07:00,36.1,32.5,29.68,NE,45,7.1,7.3,87,0.00,,,0.00,WUHU216HW,2013-12-20 00:07:00,
2013-12-19 18:08:00,36.1,32.5,29.68,NE,45,7.1,7.3,87,0.00,,,0.00,WUHU216HW,2013-12-20 00:08:00,
2013-12-19 18:10:00,36.1,32.5,29.68,NNE,23,4.4,7.3,87,0.00,,,0.00,WUHU216HW,2013-12-20 00:10:00,
2013-12-19 18:12:00,35.9,32.6,29.68,NNE,23,3.3,7.3,88,0.00,,,0.00,WUHU216HW,2013-12-20 00:12:00,
2013-12-19 18:13:00,35.9,32.6,29.68,NNE,23,3.3,7.3,88,0.00,,,0.00,WUHU216HW,2013-12-20 00:13:00,
2013-12-19 18:16:00,35.7,32.5,29.68,NE,45,5.5,7.1,88,0.00,,,0.00,WUHU216HW,2013-12-20 00:16:00,
2013-12-19 18:17:00,35.7,32.5,29.68,NE,45,5.5,7.1,88,0.00,,,0.00,WUHU216HW,2013-12-20 00:17:00,
2013-12-19 18:18:00,35.7,32.5,29.69,NNE,23,5.5,5.5,88,0.00,,,0.00,WUHU216HW,2013-12-20 00:18:00,
2013-12-19 18:21:00,35.7,32.5,29.68,NE,45,5.5,5.5,88,0.00,,,0.00,WUHU216HW,2013-12-20 00:21:00,
2013-12-19 18:22:00,35.7,32.5,29.69,NE,45,5.5,5.5,88,0.00,,,0.00,WUHU216HW,2013-12-20 00:22:00,
2013-12-19 18:23:00,35.6,32.3,29.69,NNE,23,6.0,6.0,88,0.00,,,0.00,WUHU216HW,2013-12-20 00:23:00,
2013-12-19 18:24:00,35.4,32.1,29.69,NNE,23,4.6,6.0,88,0.00,,,0.00,WUHU216HW,2013-12-20 00:24:00,
2013-12-19 18:26:00,35.4,32.1,29.69,NE,45,4.9,6.0,88,0.00,,,0.00,WUHU216HW,2013-12-20 00:26:00,
2013-12-19 18:28:00,35.4,32.1,29.69,NE,45,4.9,6.0,88,0.00,,,0.00,WUHU216HW,2013-12-20 00:28:00,
2013-12-19 18:29:00,35.4,32.1,29.69,NNE,23,6.7,6.7,88,0.00,,,0.00,WUHU216HW,2013-12-20 00:29:00,
2013-12-19 18:32:00,35.4,32.1,29.69,NE,45,4.2,6.7,88,0.00,,,0.00,WUHU216HW,2013-12-20 00:32:00,
2013-12-19 18:33:00,35.4,32.1,29.68,NE,45,8.9,8.9,88,0.00,,,0.00,WUHU216HW,2013-12-20 00:33:00,
2013-12-19 18:34:00,35.4,32.1,29.68,NE,45,8.9,8.9,88,0.00,,,0.00,WUHU216HW,2013-12-20 00:34:00,
2013-12-19 18:37:00,35.2,31.9,29.68,East,90,5.5,11.4,88,0.00,,,0.00,WUHU216HW,2013-12-20 00:37:00,
2013-12-19 18:38:00,35.2,31.9,29.68,East,90,5.5,11.4,88,0.00,,,0.00,WUHU216HW,2013-12-20 00:38:00,
2013-12-19 18:40:00,35.2,31.9,29.68,NE,45,5.1,11.4,88,0.00,,,0.00,WUHU216HW,2013-12-20 00:40:00,
2013-12-19 18:42:00,35.2,31.9,29.68,NNE,23,8.0,11.4,88,0.00,,,0.00,WUHU216HW,2013-12-20 00:42:00,
2013-12-19 18:43:00,35.2,31.9,29.68,NNE,23,8.0,11.4,88,0.00,,,0.00,WUHU216HW,2013-12-20 00:43:00,
2013-12-19 18:44:00,35.2,31.9,29.68,ENE,68,4.2,11.4,88,0.00,,,0.00,WUHU216HW,2013-12-20 00:44:00,
2013-12-19 18:45:00,35.2,31.9,29.68,ENE,68,4.2,11.4,88,0.00,,,0.00,WUHU216HW,2013-12-20 00:45:00,
2013-12-19 18:47:00,35.2,32.2,29.68,NE,45,4.4,8.0,89,0.00,,,0.00,WUHU216HW,2013-12-20 00:47:00,
2013-12-19 18:48:00,35.2,32.2,29.68,NNE,23,9.6,9.6,89,0.00,,,0.00,WUHU216HW,2013-12-20 00:48:00,
2013-12-19 18:49:00,35.2,32.2,29.68,NNE,23,9.6,9.6,89,0.00,,,0.00,WUHU216HW,2013-12-20 00:49:00,
2013-12-19 18:50:00,35.2,32.2,29.68,ENE,68,5.8,9.6,89,0.00,,,0.00,WUHU216HW,2013-12-20 00:50:00,
2013-12-19 18:52:00,35.2,32.2,29.68,ENE,68,5.8,9.6,89,0.00,,,0.00,WUHU216HW,2013-12-20 00:52:00,
2013-12-19 18:53:00,35.2,32.2,29.68,NE,45,5.5,9.6,89,0.00,,,0.00,WUHU216HW,2013-12-20 00:53:00,
2013-12-19 18:54:00,35.2,32.2,29.68,NE,45,5.5,9.6,89,0.00,,,0.00,WUHU216HW,2013-12-20 00:54:00,
2013-12-19 18:55:00,34.8,31.8,29.68,NNE,23,7.3,9.6,89,0.00,,,0.00,WUHU216HW,2013-12-20 00:55:00,
2013-12-19 18:58:00,34.8,31.8,29.68,NE,45,2.2,9.6,89,0.00,,,0.00,WUHU216HW,2013-12-20 00:58:00,
2013-12-19 18:59:00,34.8,31.8,29.68,NE,45,3.1,7.3,89,0.00,,,0.00,WUHU216HW,2013-12-20 00:59:00,
2013-12-19 19:00:00,34.8,31.8,29.68,NE,45,3.1,7.3,89,0.00,,,0.00,WUHU216HW,2013-12-20 01:00:00,
2013-12-19 19:03:00,34.8,31.8,29.68,NE,45,5.8,7.3,89,0.00,,,0.00,WUHU216HW,2013-12-20 01:03:00,
2013-12-19 19:04:00,34.8,31.8,29.68,NE,45,5.8,7.3,89,0.00,,,0.00,WUHU216HW,2013-12-20 01:04:00,
2013-12-19 19:05:00,34.8,31.8,29.68,NE,45,7.6,7.6,89,0.00,,,0.00,WUHU216HW,2013-12-20 01:05:00,
2013-12-19 19:09:00,34.8,31.8,29.68,NNE,23,12.3,12.3,89,0.00,,,0.00,WUHU216HW,2013-12-20 01:09:00,
2013-12-19 19:10:00,34.8,31.8,29.68,NNE,23,12.3,12.3,89,0.00,,,0.00,WUHU216HW,2013-12-20 01:10:00,
2013-12-19 19:14:00,34.7,31.7,29.68,ENE,68,5.8,12.3,89,0.00,,,0.00,WUHU216HW,2013-12-20 01:14:00,
2013-12-19 19:15:00,34.7,31.7,29.68,ENE,68,5.8,12.3,89,0.00,,,0.00,WUHU216HW,2013-12-20 01:15:00,
2013-12-19 19:16:00,34.7,31.7,29.68,ENE,68,5.1,12.3,89,0.00,,,0.00,WUHU216HW,2013-12-20 01:16:00,
2013-12-19 19:19:00,34.7,31.7,29.68,NNE,23,5.8,12.3,89,0.00,,,0.00,WUHU216HW,2013-12-20 01:19:00,
2013-12-19 19:20:00,34.5,31.8,29.68,NE,45,7.3,8.0,90,0.00,,,0.00,WUHU216HW,2013-12-20 01:20:00,
2013-12-19 19:21:00,34.5,31.8,29.68,NE,45,7.3,8.0,90,0.00,,,0.00,WUHU216HW,2013-12-20 01:21:00,
2013-12-19 19:24:00,34.5,31.8,29.68,NE,45,3.8,7.3,90,0.00,,,0.00,WUHU216HW,2013-12-20 01:24:00,
2013-12-19 19:25:00,34.5,31.8,29.67,NE,45,3.8,7.3,90,0.00,,,0.00,WUHU216HW,2013-12-20 01:25:00,
2013-12-19 19:26:00,34.3,31.8,29.68,NNE,23,5.1,7.3,90,0.00,,,0.00,WUHU216HW,2013-12-20 01:26:00,
2013-12-19 19:27:00,34.3,31.6,29.68,NNE,23,5.1,7.3,90,0.00,,,0.00,WUHU216HW,2013-12-20 01:27:00,
2013-12-19 19:29:00,34.3,31.6,29.68,NE,45,6.2,7.3,90,0.00,,,0.00,WUHU216HW,2013-12-20 01:29:00,
2013-12-19 19:30:00,34.3,31.6,29.68,NE,45,6.2,7.3,90,0.00,,,0.00,WUHU216HW,2013-12-20 01:30:00,
2013-12-19 19:31:00,34.3,31.6,29.68,NE,45,6.2,6.2,90,0.00,,,0.00,WUHU216HW,2013-12-20 01:31:00,
2013-12-19 19:32:00,34.3,31.6,29.68,NE,45,6.2,6.2,90,0.00,,,0.00,WUHU216HW,2013-12-20 01:32:00,
2013-12-19 19:34:00,34.3,31.6,29.68,NE,45,6.2,6.2,90,0.00,,,0.00,WUHU216HW,2013-12-20 01:34:00,
2013-12-19 19:35:00,34.3,31.6,29.68,NE,45,6.2,6.2,90,0.00,,,0.00,WUHU216HW,2013-12-20 01:35:00,
2013-12-19 19:36:00,34.3,31.6,29.68,NE,45,6.2,6.2,90,0.00,,,0.00,WUHU216HW,2013-12-20 01:36:00,
2013-12-19 19:37:00,34.3,31.6,29.68,NE,45,6.2,6.2,90,0.00,,,0.00,WUHU216HW,2013-12-20 01:37:00,
2013-12-19 19:40:00,34.3,31.6,29.68,NE,45,6.2,6.2,90,0.00,,,0.00,WUHU216HW,2013-12-20 01:40:00,
2013-12-19 19:41:00,34.3,31.6,29.68,NE,45,6.2,6.2,90,0.00,,,0.00,WUHU216HW,2013-12-20 01:41:00,
2013-12-19 19:42:00,34.3,31.6,29.68,NE,45,6.2,6.2,90,0.00,,,0.00,WUHU216HW,2013-12-20 01:42:00,
2013-12-19 20:02:00,34.1,31.4,29.68,NE,45,2.9,2.9,90,0.00,,,0.00,WUHU216HW,2013-12-20 02:02:00,
2013-12-19 20:03:00,34.1,31.4,29.68,NE,45,2.9,2.9,90,0.00,,,0.00,WUHU216HW,2013-12-20 02:03:00,
2013-12-19 20:08:00,34.1,31.4,29.68,NE,45,4.9,5.1,90,0.00,,,0.00,WUHU216HW,2013-12-20 02:08:00,
2013-12-19 20:09:00,34.1,31.4,29.68,NE,45,4.9,5.1,90,0.00,,,0.00,WUHU216HW,2013-12-20 02:09:00,
2013-12-19 20:13:00,33.9,31.2,29.68,NNE,23,3.5,5.1,90,0.00,,,0.00,WUHU216HW,2013-12-20 02:13:00,
2013-12-19 20:14:00,33.9,31.2,29.68,NNE,23,8.5,8.5,90,0.00,,,0.00,WUHU216HW,2013-12-20 02:14:00,
2013-12-19 20:15:00,33.9,31.2,29.68,NNE,23,8.5,8.5,90,0.00,,,0.00,WUHU216HW,2013-12-20 02:15:00,
2013-12-19 20:18:00,33.9,31.2,29.67,NE,45,6.7,8.5,90,0.00,,,0.00,WUHU216HW,2013-12-20 02:18:00,
2013-12-19 20:20:00,33.9,31.2,29.67,NE,45,6.7,8.5,90,0.00,,,0.00,WUHU216HW,2013-12-20 02:20:00,
2013-12-19 20:23:00,33.9,31.2,29.67,NE,45,6.7,8.5,90,0.00,,,0.00,WUHU216HW,2013-12-20 02:23:00,
2013-12-19 20:24:00,33.9,31.2,29.67,NE,45,6.7,8.5,90,0.00,,,0.00,WUHU216HW,2013-12-20 02:24:00,
2013-12-19 20:25:00,33.9,31.2,29.67,NE,45,6.7,6.7,90,0.00,,,0.00,WUHU216HW,2013-12-20 02:25:00,
2013-12-19 20:28:00,33.9,31.2,29.67,NE,45,6.7,6.7,90,0.00,,,0.00,WUHU216HW,2013-12-20 02:28:00,
2013-12-19 20:29:00,33.9,31.2,29.67,NE,45,6.7,6.7,90,0.00,,,0.00,WUHU216HW,2013-12-20 02:29:00,
2013-12-19 20:30:00,33.9,31.2,29.67,NE,45,6.7,6.7,90,0.00,,,0.00,WUHU216HW,2013-12-20 02:30:00,
2013-12-19 20:31:00,33.9,31.2,29.67,NE,45,6.7,6.7,90,0.00,,,0.00,WUHU216HW,2013-12-20 02:31:00,
2013-12-19 21:30:00,33.8,31.3,29.67,NE,45,0.0,0.0,91,0.00,,,0.00,WUHU216HW,2013-12-20 03:30:00,
2013-12-19 21:31:00,33.8,31.3,29.67,NE,45,0.0,0.0,91,0.00,,,0.00,WUHU216HW,2013-12-20 03:31:00,
2013-12-19 21:35:00,33.8,31.3,29.67,East,90,3.1,3.1,91,0.00,,,0.00,WUHU216HW,2013-12-20 03:35:00,
2013-12-19 21:36:00,33.8,31.3,29.67,East,90,3.1,3.1,91,0.00,,,0.00,WUHU216HW,2013-12-20 03:36:00,
2013-12-19 21:37:00,33.8,31.3,29.67,NE,45,6.7,6.7,91,0.00,,,0.00,WUHU216HW,2013-12-20 03:37:00,
2013-12-19 21:41:00,33.8,31.3,29.67,ENE,68,5.5,6.7,91,0.00,,,0.00,WUHU216HW,2013-12-20 03:41:00,
2013-12-19 21:42:00,33.8,31.3,29.67,ENE,68,5.5,6.7,91,0.00,,,0.00,WUHU216HW,2013-12-20 03:42:00,
2013-12-19 21:46:00,33.8,31.3,29.67,NE,45,1.3,6.7,91,0.04,,,0.03,WUHU216HW,2013-12-20 03:46:00,
2013-12-19 21:47:00,33.8,31.3,29.67,NE,45,1.3,6.7,91,0.04,,,0.03,WUHU216HW,2013-12-20 03:47:00,
2013-12-19 21:51:00,33.8,31.3,29.67,NE,45,1.3,5.5,91,0.04,,,0.03,WUHU216HW,2013-12-20 03:51:00,
2013-12-19 21:52:00,33.8,31.3,29.67,NE,45,1.3,5.5,91,0.04,,,0.03,WUHU216HW,2013-12-20 03:52:00,
2013-12-19 21:56:00,33.8,31.3,29.67,NE,45,1.3,1.3,91,0.04,,,0.03,WUHU216HW,2013-12-20 03:56:00,
2013-12-19 21:57:00,33.8,31.3,29.67,NE,45,1.3,1.3,91,0.04,,,0.03,WUHU216HW,2013-12-20 03:57:00,
2013-12-19 21:58:00,33.8,31.3,29.67,NE,45,1.3,1.3,91,0.04,,,0.03,WUHU216HW,2013-12-20 03:58:00,
2013-12-19 22:01:00,33.8,31.3,29.67,NE,45,1.3,1.3,91,0.04,,,0.03,WUHU216HW,2013-12-20 04:01:00,
2013-12-19 22:08:00,33.8,31.4,29.68,NNE,23,5.3,5.3,91,0.04,,,0.03,WUHU216HW,2013-12-20 04:08:00,
2013-12-19 22:09:00,33.8,31.4,29.68,NNE,23,5.3,5.3,91,0.04,,,0.03,WUHU216HW,2013-12-20 04:09:00,
2013-12-19 22:14:00,33.6,31.1,29.68,NE,45,0.8,5.3,91,0.04,,,0.03,WUHU216HW,2013-12-20 04:14:00,
2013-12-19 22:15:00,33.6,31.1,29.68,NE,45,0.8,5.3,91,0.04,,,0.03,WUHU216HW,2013-12-20 04:15:00,
2013-12-19 22:19:00,33.6,31.1,29.68,NNE,23,2.9,5.3,91,0.04,,,0.03,WUHU216HW,2013-12-20 04:19:00,
2013-12-19 22:20:00,33.6,31.1,29.68,NNE,23,3.5,5.3,91,0.04,,,0.03,WUHU216HW,2013-12-20 04:20:00,
2013-12-19 22:24:00,33.6,31.1,29.68,NE,45,1.7,3.5,91,0.04,,,0.03,WUHU216HW,2013-12-20 04:24:00,
2013-12-19 22:25:00,33.6,31.1,29.68,NE,45,1.7,3.5,91,0.04,,,0.03,WUHU216HW,2013-12-20 04:25:00,
2013-12-19 22:29:00,33.6,31.1,29.68,NE,45,2.4,3.5,91,0.04,,,0.03,WUHU216HW,2013-12-20 04:29:00,
2013-12-19 22:30:00,33.6,31.1,29.68,NE,45,2.4,3.5,91,0.04,,,0.03,WUHU216HW,2013-12-20 04:30:00,
2013-12-19 22:34:00,33.6,31.1,29.68,NE,45,1.7,3.5,91,0.04,,,0.03,WUHU216HW,2013-12-20 04:34:00,
2013-12-19 22:35:00,33.6,31.1,29.68,NNE,23,2.4,3.5,91,0.04,,,0.03,WUHU216HW,2013-12-20 04:35:00,
2013-12-19 22:36:00,33.6,31.1,29.68,NNE,23,2.4,3.5,91,0.04,,,0.03,WUHU216HW,2013-12-20 04:36:00,
2013-12-19 22:39:00,33.6,31.1,29.68,NNE,23,3.3,3.5,91,0.04,,,0.03,WUHU216HW,2013-12-20 04:39:00,
2013-12-19 22:40:00,33.6,31.1,29.68,NNE,23,5.5,5.5,91,0.04,,,0.03,WUHU216HW,2013-12-20 04:40:00,
2013-12-19 22:41:00,33.6,31.1,29.68,NNE,23,5.5,5.5,91,0.04,,,0.03,WUHU216HW,2013-12-20 04:41:00,
2013-12-19 22:45:00,33.6,31.1,29.68,NNW,338,0.0,5.5,91,0.04,,,0.03,WUHU216HW,2013-12-20 04:45:00,
2013-12-19 22:46:00,33.6,31.1,29.68,North,0,2.2,5.5,91,0.04,,,0.03,WUHU216HW,2013-12-20 04:46:00,
2013-12-19 22:50:00,33.6,31.1,29.68,NNE,23,2.2,5.5,91,0.00,,,0.03,WUHU216HW,2013-12-20 04:50:00,
2013-12-19 22:51:00,33.6,31.1,29.68,NNE,23,2.2,5.5,91,0.00,,,0.03,WUHU216HW,2013-12-20 04:51:00,
2013-12-19 22:52:00,33.6,31.1,29.68,NE,45,2.2,3.1,91,0.00,,,0.03,WUHU216HW,2013-12-20 04:52:00,
2013-12-19 22:55:00,33.6,31.1,29.68,NNE,23,3.8,3.8,91,0.00,,,0.03,WUHU216HW,2013-12-20 04:55:00,
2013-12-19 22:56:00,33.6,31.1,29.68,NNE,23,3.8,3.8,91,0.00,,,0.03,WUHU216HW,2013-12-20 04:56:00,
2013-12-19 22:57:00,33.6,31.1,29.68,North,0,6.4,6.4,91,0.00,,,0.03,WUHU216HW,2013-12-20 04:57:00,
2013-12-19 23:00:00,33.6,31.1,29.70,NNW,338,7.1,7.1,91,0.00,,,0.03,WUHU216HW,2013-12-20 05:00:00,
2013-12-19 23:01:00,33.6,31.1,29.70,NNW,338,2.0,7.1,91,0.00,,,0.03,WUHU216HW,2013-12-20 05:01:00,
2013-12-19 23:02:00,33.6,31.1,29.70,NNW,338,2.0,7.1,91,0.00,,,0.03,WUHU216HW,2013-12-20 05:02:00,
2013-12-19 23:06:00,33.6,31.1,29.69,North,0,2.0,7.1,91,0.00,,,0.03,WUHU216HW,2013-12-20 05:06:00,
2013-12-19 23:07:00,33.6,31.1,29.69,North,0,2.0,7.1,91,0.00,,,0.03,WUHU216HW,2013-12-20 05:07:00,
2013-12-19 23:11:00,33.6,31.1,29.70,North,0,2.0,2.9,91,0.00,,,0.03,WUHU216HW,2013-12-20 05:11:00,
2013-12-19 23:12:00,33.6,31.1,29.69,North,0,2.0,2.9,91,0.00,,,0.03,WUHU216HW,2013-12-20 05:12:00,
2013-12-19 23:16:00,33.6,31.1,29.69,North,0,2.0,2.0,91,0.00,,,0.03,WUHU216HW,2013-12-20 05:16:00,
2013-12-19 23:17:00,33.6,31.1,29.69,North,0,2.0,2.0,91,0.00,,,0.03,WUHU216HW,2013-12-20 05:17:00,
2013-12-19 23:21:00,33.6,31.1,29.69,North,0,2.0,2.0,91,0.00,,,0.03,WUHU216HW,2013-12-20 05:21:00,
2013-12-19 23:22:00,33.6,31.1,29.69,North,0,2.0,2.0,91,0.00,,,0.03,WUHU216HW,2013-12-20 05:22:00,
2013-12-19 23:26:00,33.6,31.1,29.69,North,0,2.0,2.0,91,0.00,,,0.03,WUHU216HW,2013-12-20 05:26:00,
2013-12-19 23:27:00,33.6,31.1,29.69,North,0,2.0,2.0,91,0.00,,,0.03,WUHU216HW,2013-12-20 05:27:00,
2013-12-19 23:28:00,33.6,31.1,29.69,North,0,2.0,2.0,91,0.00,,,0.03,WUHU216HW,2013-12-20 05:28:00,